SVA73 HUEN-OPSD
Flight info
| Callsign | SVA73 |
|---|---|
| Flight time | 6h 57m |
| Altitude | 33000 |
| Route | IMVIP2D IMVIP UL432 LOV UM216 RUDOL M216 AXAPO UM216 HARGA UP312 TIMAD P312 DATEG Y103 IMPOS B424 VUTAP B400 GEPOT G652 KUSRA Z465 VUSET R462 BIVIN G214 PG J215 ATRIS G325 ZB Z304 RN J186 KAGLO J122 DELDA J125 SANAM |
| Aircraft | B77L/H-SDE1E2E3FGHIJ2J3J4J5M1RWXY/LB1D1 |
Departure
| Time | 2026-04-10 06:15 |
|---|---|
| Airport | Entebbe International Airport (HUEN) |
Arrival
| Time | 2026-04-10 13:13 |
|---|---|
| Airport | Skardu International Airport (OPSD) |
| Time | Latitude | Longitude | Altitude | Speed | Heading |
|---|---|---|---|---|---|
| 2026-04-10 05:54 | 0.04290 | 32.44206 | 3784 ft | 0 kts | 82° |
| 2026-04-10 06:05 | 0.04289 | 32.44201 | 3784 ft | 4 kts | 82° |
| 2026-04-10 06:05 | 0.04286 | 32.44174 | 3784 ft | 4 kts | 82° |
| 2026-04-10 06:05 | 0.04284 | 32.44152 | 3784 ft | 4 kts | 102° |
| 2026-04-10 06:05 | 0.04291 | 32.44136 | 3784 ft | 4 kts | 153° |
| 2026-04-10 06:06 | 0.04314 | 32.44130 | 3784 ft | 4 kts | 174° |
| 2026-04-10 06:06 | 0.04324 | 32.44129 | 3784 ft | 0 kts | 172° |
| 2026-04-10 06:09 | 0.04304 | 32.44131 | 3784 ft | 7 kts | 172° |
| 2026-04-10 06:09 | 0.04253 | 32.44132 | 3791 ft | 7 kts | 194° |
| 2026-04-10 06:09 | 0.04220 | 32.44094 | 3783 ft | 8 kts | 252° |
| 2026-04-10 06:09 | 0.04201 | 32.44020 | 3778 ft | 12 kts | 247° |
| 2026-04-10 06:10 | 0.04127 | 32.43995 | 3785 ft | 12 kts | 174° |
| 2026-04-10 06:10 | 0.04041 | 32.44006 | 3787 ft | 12 kts | 172° |
| 2026-04-10 06:10 | 0.03956 | 32.44019 | 3782 ft | 12 kts | 171° |
| 2026-04-10 06:10 | 0.03870 | 32.44031 | 3781 ft | 12 kts | 173° |
| 2026-04-10 06:11 | 0.03783 | 32.44042 | 3784 ft | 14 kts | 172° |
| 2026-04-10 06:11 | 0.03669 | 32.44060 | 3783 ft | 19 kts | 171° |
| 2026-04-10 06:11 | 0.03531 | 32.44081 | 3782 ft | 20 kts | 173° |
| 2026-04-10 06:11 | 0.03393 | 32.44097 | 3778 ft | 20 kts | 173° |
| 2026-04-10 06:12 | 0.03253 | 32.44115 | 3778 ft | 20 kts | 172° |
| 2026-04-10 06:12 | 0.03113 | 32.44135 | 3773 ft | 20 kts | 172° |
| 2026-04-10 06:12 | 0.02974 | 32.44155 | 3768 ft | 20 kts | 172° |
| 2026-04-10 06:12 | 0.02834 | 32.44173 | 3765 ft | 20 kts | 173° |
| 2026-04-10 06:13 | 0.02694 | 32.44193 | 3763 ft | 20 kts | 172° |
| 2026-04-10 06:13 | 0.02555 | 32.44213 | 3770 ft | 20 kts | 172° |
| 2026-04-10 06:13 | 0.02415 | 32.44233 | 3754 ft | 20 kts | 172° |
| 2026-04-10 06:13 | 0.02292 | 32.44193 | 3754 ft | 20 kts | 235° |
| 2026-04-10 06:14 | 0.02292 | 32.44141 | 3768 ft | 7 kts | 282° |
| 2026-04-10 06:14 | 0.02310 | 32.44095 | 3769 ft | 7 kts | 302° |
| 2026-04-10 06:14 | 0.02418 | 32.44057 | 3766 ft | 40 kts | 351° |
| 2026-04-10 06:14 | 0.02952 | 32.43981 | 3770 ft | 113 kts | 353° |
| 2026-04-10 06:15 | 0.03962 | 32.43842 | 3777 ft | 177 kts | 352° |
| 2026-04-10 06:15 | 0.05304 | 32.43636 | 4052 ft | 199 kts | 351° |
| 2026-04-10 06:15 | 0.06646 | 32.43516 | 4924 ft | 187 kts | 355° |
| 2026-04-10 06:15 | 0.07954 | 32.43437 | 5526 ft | 195 kts | 351° |
| 2026-04-10 06:16 | 0.09340 | 32.43233 | 5639 ft | 214 kts | 348° |
| 2026-04-10 06:16 | 0.10864 | 32.42967 | 5826 ft | 233 kts | 349° |
| 2026-04-10 06:16 | 0.12545 | 32.42691 | 6000 ft | 256 kts | 350° |
| 2026-04-10 06:16 | 0.14374 | 32.42409 | 6327 ft | 273 kts | 351° |
| 2026-04-10 06:17 | 0.16300 | 32.42121 | 6805 ft | 285 kts | 351° |
| 2026-04-10 06:17 | 0.18293 | 32.41832 | 7407 ft | 293 kts | 352° |
| 2026-04-10 06:17 | 0.20330 | 32.41541 | 8071 ft | 298 kts | 352° |
| 2026-04-10 06:17 | 0.22389 | 32.41256 | 8805 ft | 300 kts | 352° |
| 2026-04-10 06:18 | 0.24464 | 32.40968 | 9483 ft | 303 kts | 353° |
| 2026-04-10 06:18 | 0.26541 | 32.40681 | 10126 ft | 307 kts | 352° |
| 2026-04-10 06:18 | 0.28657 | 32.40710 | 10721 ft | 310 kts | 16° |
| 2026-04-10 06:18 | 0.30680 | 32.41594 | 10894 ft | 326 kts | 29° |
| 2026-04-10 06:19 | 0.32714 | 32.42729 | 11030 ft | 343 kts | 38° |
| 2026-04-10 06:19 | 0.34391 | 32.44493 | 11187 ft | 361 kts | 55° |
| 2026-04-10 06:19 | 0.35813 | 32.46624 | 11571 ft | 375 kts | 58° |
| 2026-04-10 06:19 | 0.37218 | 32.48835 | 12329 ft | 377 kts | 58° |
| 2026-04-10 06:20 | 0.38661 | 32.51006 | 13047 ft | 376 kts | 57° |
| 2026-04-10 06:20 | 0.39648 | 32.52432 | 13144 ft | 379 kts | 56° |
| 2026-04-10 06:20 | 0.41692 | 32.55262 | 13132 ft | 379 kts | 54° |
| 2026-04-10 06:20 | 0.43263 | 32.57378 | 13129 ft | 380 kts | 54° |
| 2026-04-10 06:21 | 0.44838 | 32.59488 | 13132 ft | 378 kts | 54° |
| 2026-04-10 06:21 | 0.46412 | 32.61594 | 13127 ft | 378 kts | 54° |
| 2026-04-10 06:21 | 0.47979 | 32.63693 | 13129 ft | 377 kts | 54° |
| 2026-04-10 06:21 | 0.49542 | 32.65796 | 13262 ft | 379 kts | 55° |
| 2026-04-10 06:22 | 0.50572 | 32.67210 | 13692 ft | 382 kts | 54° |
| 2026-04-10 06:22 | 0.52185 | 32.69328 | 14415 ft | 384 kts | 53° |
| 2026-04-10 06:22 | 0.54327 | 32.72171 | 15355 ft | 388 kts | 54° |
| 2026-04-10 06:22 | 0.55938 | 32.74347 | 16053 ft | 391 kts | 54° |
| 2026-04-10 06:23 | 0.57559 | 32.76536 | 16736 ft | 394 kts | 54° |
| 2026-04-10 06:23 | 0.59198 | 32.78743 | 17373 ft | 397 kts | 54° |
| 2026-04-10 06:23 | 0.60292 | 32.80213 | 17794 ft | 399 kts | 54° |
| 2026-04-10 06:23 | 0.61954 | 32.82446 | 18401 ft | 401 kts | 54° |
| 2026-04-10 06:24 | 0.63487 | 32.84501 | 18956 ft | 404 kts | 54° |
| 2026-04-10 06:24 | 0.65172 | 32.86761 | 19505 ft | 407 kts | 54° |
| 2026-04-10 06:24 | 0.67286 | 32.89593 | 20178 ft | 411 kts | 54° |
| 2026-04-10 06:24 | 0.68980 | 32.91871 | 20701 ft | 414 kts | 54° |
| 2026-04-10 06:25 | 0.70143 | 32.93436 | 21054 ft | 416 kts | 54° |
| 2026-04-10 06:25 | 0.71607 | 32.95892 | 21524 ft | 419 kts | 66° |
| 2026-04-10 06:25 | 0.72654 | 32.98619 | 21989 ft | 422 kts | 70° |
| 2026-04-10 06:25 | 0.73639 | 33.01393 | 22446 ft | 425 kts | 70° |
| 2026-04-10 06:26 | 0.74640 | 33.04184 | 22884 ft | 429 kts | 69° |
| 2026-04-10 06:26 | 0.75677 | 33.06987 | 23336 ft | 431 kts | 69° |
| 2026-04-10 06:26 | 0.76740 | 33.09794 | 23774 ft | 434 kts | 68° |
| 2026-04-10 06:26 | 0.78177 | 33.13535 | 24357 ft | 436 kts | 68° |
| 2026-04-10 06:27 | 0.78915 | 33.15451 | 24639 ft | 438 kts | 68° |
| 2026-04-10 06:27 | 0.80011 | 33.18303 | 24986 ft | 442 kts | 68° |
| 2026-04-10 06:27 | 0.81199 | 33.21091 | 25231 ft | 445 kts | 60° |
| 2026-04-10 06:27 | 0.83077 | 33.23554 | 25420 ft | 447 kts | 45° |
| 2026-04-10 06:28 | 0.85313 | 33.25741 | 25690 ft | 452 kts | 45° |
| 2026-04-10 06:28 | 0.87552 | 33.27956 | 26051 ft | 455 kts | 45° |
| 2026-04-10 06:28 | 0.89794 | 33.30203 | 26406 ft | 457 kts | 46° |
| 2026-04-10 06:28 | 0.92034 | 33.32470 | 26718 ft | 460 kts | 46° |
| 2026-04-10 06:29 | 0.94289 | 33.34764 | 27005 ft | 465 kts | 46° |
| 2026-04-10 06:29 | 0.96558 | 33.37078 | 27323 ft | 468 kts | 46° |
| 2026-04-10 06:29 | 0.98627 | 33.39192 | 27613 ft | 470 kts | 46° |
| 2026-04-10 06:29 | 1.00921 | 33.41538 | 27938 ft | 473 kts | 46° |
| 2026-04-10 06:30 | 1.03041 | 33.43705 | 28196 ft | 476 kts | 46° |
| 2026-04-10 06:30 | 1.05369 | 33.46084 | 28492 ft | 480 kts | 46° |
| 2026-04-10 06:30 | 1.07710 | 33.48473 | 28807 ft | 483 kts | 46° |
| 2026-04-10 06:30 | 1.10063 | 33.50877 | 29093 ft | 486 kts | 46° |
| 2026-04-10 06:31 | 1.12432 | 33.53297 | 29355 ft | 489 kts | 46° |
| 2026-04-10 06:31 | 1.14815 | 33.55730 | 29619 ft | 491 kts | 46° |
| 2026-04-10 06:31 | 1.17178 | 33.58145 | 29881 ft | 494 kts | 46° |
| 2026-04-10 06:31 | 1.19588 | 33.60609 | 30140 ft | 497 kts | 46° |
| 2026-04-10 06:32 | 1.22004 | 33.63078 | 30482 ft | 497 kts | 46° |
| 2026-04-10 06:32 | 1.24415 | 33.65540 | 30870 ft | 496 kts | 46° |
| 2026-04-10 06:32 | 1.26824 | 33.68000 | 31298 ft | 495 kts | 45° |
| 2026-04-10 06:32 | 1.29229 | 33.70458 | 31669 ft | 494 kts | 45° |
| 2026-04-10 06:33 | 1.31623 | 33.72903 | 32039 ft | 494 kts | 45° |
| 2026-04-10 06:33 | 1.34033 | 33.75365 | 32391 ft | 494 kts | 45° |
| 2026-04-10 06:33 | 1.36402 | 33.77786 | 32717 ft | 494 kts | 45° |
| 2026-04-10 06:33 | 1.38804 | 33.80241 | 33046 ft | 494 kts | 45° |
| 2026-04-10 06:34 | 1.41219 | 33.82709 | 33083 ft | 498 kts | 45° |
| 2026-04-10 06:34 | 1.46060 | 33.87654 | 33108 ft | 496 kts | 45° |
| 2026-04-10 06:35 | 1.50857 | 33.92555 | 33119 ft | 492 kts | 45° |
| 2026-04-10 06:35 | 1.55609 | 33.97412 | 33121 ft | 491 kts | 45° |
| 2026-04-10 06:36 | 1.60389 | 34.02298 | 33120 ft | 491 kts | 45° |
| 2026-04-10 06:36 | 1.65171 | 34.07185 | 33121 ft | 492 kts | 45° |
| 2026-04-10 06:37 | 1.69956 | 34.12077 | 33122 ft | 493 kts | 45° |
| 2026-04-10 06:37 | 1.74721 | 34.16946 | 33123 ft | 494 kts | 45° |
| 2026-04-10 06:38 | 1.79527 | 34.21857 | 33142 ft | 494 kts | 45° |
| 2026-04-10 06:38 | 1.84254 | 34.26847 | 33172 ft | 494 kts | 48° |
| 2026-04-10 06:39 | 1.88548 | 34.31848 | 33146 ft | 495 kts | 49° |
| 2026-04-10 06:39 | 1.92970 | 34.37060 | 33170 ft | 495 kts | 49° |
| 2026-04-10 06:40 | 1.97439 | 34.42293 | 33156 ft | 495 kts | 49° |
| 2026-04-10 06:40 | 2.01913 | 34.47507 | 33159 ft | 494 kts | 48° |
| 2026-04-10 06:41 | 2.06392 | 34.52724 | 33151 ft | 494 kts | 48° |
| 2026-04-10 06:41 | 2.10865 | 34.57937 | 33162 ft | 494 kts | 48° |
| 2026-04-10 06:42 | 2.15311 | 34.63117 | 33152 ft | 494 kts | 48° |
| 2026-04-10 06:42 | 2.19782 | 34.68329 | 33149 ft | 494 kts | 48° |
| 2026-04-10 06:43 | 2.24254 | 34.73544 | 33141 ft | 494 kts | 48° |
| 2026-04-10 06:43 | 2.28697 | 34.78724 | 33134 ft | 494 kts | 48° |
| 2026-04-10 06:44 | 2.32984 | 34.83721 | 33122 ft | 493 kts | 48° |
| 2026-04-10 06:44 | 2.37449 | 34.88928 | 33116 ft | 493 kts | 48° |
| 2026-04-10 06:45 | 2.41916 | 34.94138 | 33101 ft | 493 kts | 48° |
| 2026-04-10 06:45 | 2.46457 | 34.99200 | 33090 ft | 491 kts | 43° |
| 2026-04-10 06:46 | 2.51374 | 35.03938 | 33094 ft | 490 kts | 42° |
| 2026-04-10 06:46 | 2.56314 | 35.08647 | 33082 ft | 491 kts | 42° |
| 2026-04-10 06:47 | 2.61238 | 35.13378 | 33068 ft | 491 kts | 42° |
| 2026-04-10 06:47 | 2.66154 | 35.18127 | 33048 ft | 491 kts | 43° |
| 2026-04-10 06:48 | 2.71030 | 35.22843 | 33031 ft | 491 kts | 43° |
| 2026-04-10 06:48 | 2.75940 | 35.27590 | 33017 ft | 491 kts | 42° |
| 2026-04-10 06:49 | 2.80855 | 35.32343 | 33001 ft | 491 kts | 42° |
| 2026-04-10 06:49 | 2.85734 | 35.37060 | 32988 ft | 491 kts | 42° |
| 2026-04-10 06:50 | 2.90644 | 35.41807 | 32982 ft | 490 kts | 42° |
| 2026-04-10 06:50 | 2.95549 | 35.46551 | 32976 ft | 490 kts | 42° |
| 2026-04-10 06:51 | 3.00449 | 35.51288 | 32978 ft | 490 kts | 42° |
| 2026-04-10 06:51 | 3.05315 | 35.55994 | 32974 ft | 489 kts | 42° |
| 2026-04-10 06:52 | 3.09942 | 35.60983 | 32971 ft | 491 kts | 51° |
| 2026-04-10 06:52 | 3.13609 | 35.66757 | 32967 ft | 494 kts | 61° |
| 2026-04-10 06:53 | 3.16630 | 35.72929 | 32965 ft | 495 kts | 62° |
| 2026-04-10 06:53 | 3.19606 | 35.79087 | 32962 ft | 495 kts | 62° |
| 2026-04-10 06:54 | 3.22629 | 35.85267 | 32965 ft | 495 kts | 62° |
| 2026-04-10 06:54 | 3.25672 | 35.91441 | 32961 ft | 495 kts | 62° |
| 2026-04-10 06:55 | 3.28725 | 35.97623 | 32962 ft | 495 kts | 62° |
| 2026-04-10 06:55 | 3.31754 | 36.03761 | 32960 ft | 495 kts | 62° |
| 2026-04-10 06:56 | 3.34799 | 36.09934 | 32961 ft | 494 kts | 62° |
| 2026-04-10 06:56 | 3.37845 | 36.16108 | 32958 ft | 494 kts | 62° |
| 2026-04-10 06:57 | 3.40884 | 36.22271 | 32971 ft | 494 kts | 62° |
| 2026-04-10 06:57 | 3.43906 | 36.28399 | 32970 ft | 494 kts | 62° |
| 2026-04-10 06:58 | 3.46945 | 36.34569 | 32969 ft | 494 kts | 62° |
| 2026-04-10 06:58 | 3.49983 | 36.40736 | 32976 ft | 494 kts | 62° |
| 2026-04-10 06:59 | 3.53024 | 36.46907 | 32972 ft | 494 kts | 62° |
| 2026-04-10 06:59 | 3.56045 | 36.53037 | 32970 ft | 494 kts | 62° |
| 2026-04-10 07:00 | 3.59088 | 36.59210 | 32969 ft | 495 kts | 62° |
| 2026-04-10 07:00 | 3.62126 | 36.65386 | 32971 ft | 494 kts | 62° |
| 2026-04-10 07:01 | 3.65164 | 36.71557 | 32971 ft | 494 kts | 62° |
| 2026-04-10 07:01 | 3.68176 | 36.77676 | 32969 ft | 493 kts | 62° |
| 2026-04-10 07:02 | 3.71207 | 36.83831 | 32971 ft | 493 kts | 62° |
| 2026-04-10 07:02 | 3.74233 | 36.89984 | 32973 ft | 493 kts | 62° |
| 2026-04-10 07:03 | 3.77262 | 36.96144 | 32971 ft | 493 kts | 62° |
| 2026-04-10 07:03 | 3.80270 | 37.02262 | 32976 ft | 493 kts | 62° |
| 2026-04-10 07:04 | 3.83299 | 37.08423 | 32976 ft | 493 kts | 62° |
| 2026-04-10 07:04 | 3.86327 | 37.14587 | 32969 ft | 493 kts | 62° |
| 2026-04-10 07:05 | 3.89360 | 37.20752 | 32973 ft | 493 kts | 62° |
| 2026-04-10 07:05 | 3.92368 | 37.26874 | 32969 ft | 493 kts | 62° |
| 2026-04-10 07:06 | 3.95393 | 37.33032 | 32968 ft | 492 kts | 62° |
| 2026-04-10 07:06 | 3.98431 | 37.39180 | 32967 ft | 492 kts | 60° |
| 2026-04-10 07:07 | 4.02164 | 37.44879 | 32976 ft | 488 kts | 48° |
| 2026-04-10 07:07 | 4.06535 | 37.50017 | 32981 ft | 488 kts | 47° |
| 2026-04-10 07:08 | 4.10953 | 37.55171 | 32971 ft | 488 kts | 47° |
| 2026-04-10 07:08 | 4.15347 | 37.60346 | 32972 ft | 488 kts | 48° |
| 2026-04-10 07:09 | 4.21738 | 37.67926 | 32974 ft | 488 kts | 48° |
| 2026-04-10 07:09 | 4.26085 | 37.73086 | 32980 ft | 488 kts | 48° |
| 2026-04-10 07:10 | 4.30466 | 37.78286 | 32982 ft | 488 kts | 48° |
| 2026-04-10 07:10 | 4.34849 | 37.83484 | 32990 ft | 488 kts | 48° |
| 2026-04-10 07:11 | 4.39227 | 37.88679 | 32987 ft | 488 kts | 48° |
| 2026-04-10 07:11 | 4.43576 | 37.93845 | 32977 ft | 488 kts | 48° |
| 2026-04-10 07:12 | 4.47957 | 37.99046 | 32983 ft | 489 kts | 48° |
| 2026-04-10 07:12 | 4.52339 | 38.04246 | 32988 ft | 488 kts | 48° |
| 2026-04-10 07:13 | 4.56716 | 38.09448 | 32975 ft | 487 kts | 48° |
| 2026-04-10 07:13 | 4.61055 | 38.14602 | 32977 ft | 487 kts | 48° |
| 2026-04-10 07:14 | 4.65241 | 38.19577 | 32990 ft | 486 kts | 48° |
| 2026-04-10 07:14 | 4.69597 | 38.24758 | 32980 ft | 485 kts | 48° |
| 2026-04-10 07:15 | 4.73948 | 38.29929 | 32979 ft | 485 kts | 48° |
| 2026-04-10 07:15 | 4.78267 | 38.35059 | 32977 ft | 484 kts | 48° |
| 2026-04-10 07:16 | 4.82614 | 38.40222 | 32978 ft | 484 kts | 48° |
| 2026-04-10 07:16 | 4.86955 | 38.45382 | 32981 ft | 484 kts | 48° |
| 2026-04-10 07:17 | 4.91287 | 38.50542 | 32998 ft | 484 kts | 48° |
| 2026-04-10 07:17 | 4.95598 | 38.55670 | 32975 ft | 484 kts | 48° |
| 2026-04-10 07:18 | 4.99929 | 38.60828 | 32979 ft | 483 kts | 48° |
| 2026-04-10 07:18 | 5.04262 | 38.65989 | 32981 ft | 483 kts | 48° |
| 2026-04-10 07:19 | 5.08591 | 38.71141 | 32978 ft | 483 kts | 48° |
| 2026-04-10 07:19 | 5.12885 | 38.76260 | 32976 ft | 483 kts | 48° |
| 2026-04-10 07:20 | 5.17210 | 38.81412 | 32997 ft | 483 kts | 48° |
| 2026-04-10 07:20 | 5.21534 | 38.86563 | 32995 ft | 482 kts | 48° |
| 2026-04-10 07:21 | 5.25854 | 38.91710 | 32995 ft | 482 kts | 48° |
| 2026-04-10 07:21 | 5.30148 | 38.96832 | 32974 ft | 483 kts | 48° |
| 2026-04-10 07:22 | 5.34464 | 39.01982 | 32976 ft | 482 kts | 48° |
| 2026-04-10 07:22 | 5.38780 | 39.07131 | 32976 ft | 482 kts | 48° |
| 2026-04-10 07:23 | 5.43093 | 39.12277 | 32991 ft | 481 kts | 48° |
| 2026-04-10 07:23 | 5.47375 | 39.17386 | 32982 ft | 481 kts | 48° |
| 2026-04-10 07:24 | 5.51678 | 39.22524 | 32989 ft | 481 kts | 48° |
| 2026-04-10 07:24 | 5.55979 | 39.27662 | 32975 ft | 481 kts | 48° |
| 2026-04-10 07:25 | 5.60281 | 39.32801 | 32986 ft | 480 kts | 48° |
| 2026-04-10 07:25 | 5.64550 | 39.37902 | 32985 ft | 481 kts | 48° |
| 2026-04-10 07:26 | 5.68852 | 39.43040 | 32971 ft | 480 kts | 48° |
| 2026-04-10 07:26 | 5.73147 | 39.48173 | 32965 ft | 480 kts | 48° |
| 2026-04-10 07:27 | 5.77438 | 39.53307 | 32973 ft | 480 kts | 48° |
| 2026-04-10 07:27 | 5.81700 | 39.58402 | 32968 ft | 480 kts | 48° |
| 2026-04-10 07:28 | 5.85985 | 39.63532 | 32978 ft | 479 kts | 48° |
| 2026-04-10 07:28 | 5.90273 | 39.68666 | 32965 ft | 480 kts | 48° |
| 2026-04-10 07:29 | 5.94748 | 39.73666 | 33139 ft | 484 kts | 45° |
| 2026-04-10 07:29 | 5.97030 | 39.76086 | 33486 ft | 483 kts | 44° |
| 2026-04-10 07:29 | 5.99336 | 39.78528 | 33904 ft | 481 kts | 45° |
| 2026-04-10 07:30 | 6.01626 | 39.80972 | 34311 ft | 479 kts | 45° |
| 2026-04-10 07:30 | 6.03895 | 39.83412 | 34699 ft | 477 kts | 45° |
| 2026-04-10 07:30 | 6.06155 | 39.85855 | 35025 ft | 478 kts | 45° |
| 2026-04-10 07:30 | 6.08432 | 39.88321 | 34958 ft | 483 kts | 45° |
| 2026-04-10 07:31 | 6.12978 | 39.93254 | 34964 ft | 478 kts | 45° |
| 2026-04-10 07:31 | 6.17446 | 39.98104 | 34967 ft | 475 kts | 45° |
| 2026-04-10 07:32 | 6.21930 | 40.02962 | 34972 ft | 474 kts | 45° |
| 2026-04-10 07:32 | 6.26201 | 40.08022 | 34976 ft | 475 kts | 49° |
| 2026-04-10 07:33 | 6.30347 | 40.13194 | 34995 ft | 475 kts | 49° |
| 2026-04-10 07:33 | 6.34469 | 40.18339 | 35004 ft | 477 kts | 49° |
| 2026-04-10 07:34 | 6.38655 | 40.23532 | 34996 ft | 479 kts | 49° |
| 2026-04-10 07:34 | 6.42854 | 40.28730 | 35006 ft | 480 kts | 49° |
| 2026-04-10 07:35 | 6.47063 | 40.33942 | 35007 ft | 480 kts | 49° |
| 2026-04-10 07:35 | 6.51243 | 40.39118 | 34994 ft | 480 kts | 49° |
| 2026-04-10 07:36 | 6.55455 | 40.44335 | 35006 ft | 481 kts | 49° |
| 2026-04-10 07:36 | 6.59670 | 40.49560 | 34996 ft | 481 kts | 49° |
| 2026-04-10 07:37 | 6.63891 | 40.54794 | 34990 ft | 482 kts | 49° |
| 2026-04-10 07:37 | 6.68079 | 40.59987 | 35016 ft | 481 kts | 49° |
| 2026-04-10 07:38 | 6.72289 | 40.65208 | 35004 ft | 480 kts | 49° |
| 2026-04-10 07:38 | 6.76324 | 40.70218 | 35005 ft | 480 kts | 49° |
| 2026-04-10 07:39 | 6.80354 | 40.75221 | 35012 ft | 479 kts | 49° |
| 2026-04-10 07:39 | 6.84523 | 40.80393 | 35015 ft | 479 kts | 49° |
| 2026-04-10 07:40 | 6.88708 | 40.85599 | 35012 ft | 479 kts | 49° |
| 2026-04-10 07:40 | 6.92902 | 40.90805 | 35014 ft | 478 kts | 49° |
| 2026-04-10 07:41 | 6.97093 | 40.96014 | 35010 ft | 479 kts | 49° |
| 2026-04-10 07:41 | 7.01256 | 41.01190 | 35016 ft | 479 kts | 49° |
| 2026-04-10 07:42 | 7.05448 | 41.06405 | 35012 ft | 479 kts | 49° |
| 2026-04-10 07:42 | 7.09638 | 41.11616 | 35014 ft | 479 kts | 49° |
| 2026-04-10 07:43 | 7.13832 | 41.16835 | 35010 ft | 479 kts | 49° |
| 2026-04-10 07:43 | 7.17856 | 41.21847 | 35014 ft | 480 kts | 49° |
| 2026-04-10 07:44 | 7.21857 | 41.26829 | 35011 ft | 480 kts | 50° |
| 2026-04-10 07:44 | 7.26069 | 41.32053 | 35011 ft | 480 kts | 49° |
| 2026-04-10 07:45 | 7.30354 | 41.37221 | 35010 ft | 481 kts | 49° |
| 2026-04-10 07:45 | 7.34649 | 41.42384 | 35005 ft | 481 kts | 49° |
| 2026-04-10 07:46 | 7.38908 | 41.47519 | 35012 ft | 481 kts | 49° |
| 2026-04-10 07:46 | 7.43191 | 41.52700 | 35016 ft | 481 kts | 49° |
| 2026-04-10 07:47 | 7.47474 | 41.57882 | 35005 ft | 482 kts | 49° |
| 2026-04-10 07:47 | 7.51762 | 41.63071 | 35011 ft | 482 kts | 49° |
| 2026-04-10 07:48 | 7.56016 | 41.68220 | 35019 ft | 481 kts | 49° |
| 2026-04-10 07:48 | 7.60298 | 41.73404 | 35029 ft | 481 kts | 49° |
| 2026-04-10 07:49 | 7.64580 | 41.78592 | 35019 ft | 481 kts | 49° |
| 2026-04-10 07:49 | 7.68857 | 41.83777 | 35021 ft | 481 kts | 49° |
| 2026-04-10 07:50 | 7.73106 | 41.88932 | 35015 ft | 481 kts | 49° |
| 2026-04-10 07:50 | 7.77373 | 41.94127 | 35022 ft | 481 kts | 49° |
| 2026-04-10 07:51 | 7.81640 | 41.99325 | 35012 ft | 481 kts | 49° |
| 2026-04-10 07:51 | 7.85910 | 42.04528 | 35017 ft | 481 kts | 49° |
| 2026-04-10 07:52 | 7.90150 | 42.09693 | 35020 ft | 481 kts | 49° |
| 2026-04-10 07:52 | 7.94421 | 42.14899 | 35019 ft | 482 kts | 50° |
| 2026-04-10 07:53 | 7.98691 | 42.20110 | 35021 ft | 482 kts | 50° |
| 2026-04-10 07:53 | 8.02767 | 42.25079 | 35022 ft | 482 kts | 49° |
| 2026-04-10 07:54 | 8.07043 | 42.30293 | 35022 ft | 482 kts | 50° |
| 2026-04-10 07:54 | 8.11309 | 42.35504 | 35022 ft | 482 kts | 50° |
| 2026-04-10 07:55 | 8.15580 | 42.40719 | 35013 ft | 482 kts | 49° |
| 2026-04-10 07:55 | 8.19820 | 42.45899 | 35017 ft | 482 kts | 49° |
| 2026-04-10 07:56 | 8.24089 | 42.51119 | 35022 ft | 482 kts | 49° |
| 2026-04-10 07:56 | 8.28358 | 42.56332 | 35023 ft | 482 kts | 49° |
| 2026-04-10 07:57 | 8.32628 | 42.61554 | 35013 ft | 482 kts | 49° |
| 2026-04-10 07:57 | 8.36872 | 42.66746 | 34997 ft | 483 kts | 49° |
| 2026-04-10 07:58 | 8.41145 | 42.71974 | 34994 ft | 483 kts | 49° |
| 2026-04-10 07:58 | 8.45255 | 42.77007 | 35007 ft | 483 kts | 49° |
| 2026-04-10 07:59 | 8.49526 | 42.82237 | 34998 ft | 482 kts | 49° |
| 2026-04-10 07:59 | 8.53764 | 42.87430 | 35005 ft | 482 kts | 49° |
| 2026-04-10 08:00 | 8.58024 | 42.92654 | 34990 ft | 482 kts | 49° |
| 2026-04-10 08:00 | 8.62288 | 42.97880 | 34999 ft | 482 kts | 49° |
| 2026-04-10 08:01 | 8.66552 | 43.03111 | 35003 ft | 482 kts | 49° |
| 2026-04-10 08:01 | 8.70786 | 43.08310 | 34999 ft | 482 kts | 49° |
| 2026-04-10 08:02 | 8.75043 | 43.13537 | 35002 ft | 482 kts | 49° |
| 2026-04-10 08:02 | 8.79302 | 43.18766 | 34992 ft | 482 kts | 49° |
| 2026-04-10 08:03 | 8.83561 | 43.23993 | 34995 ft | 481 kts | 49° |
| 2026-04-10 08:03 | 8.87787 | 43.29191 | 35004 ft | 482 kts | 49° |
| 2026-04-10 08:04 | 8.92045 | 43.34429 | 35005 ft | 482 kts | 49° |
| 2026-04-10 08:05 | 8.98437 | 43.42288 | 35005 ft | 483 kts | 49° |
| 2026-04-10 08:05 | 9.02700 | 43.47535 | 35005 ft | 483 kts | 49° |
| 2026-04-10 08:06 | 9.06932 | 43.52751 | 34996 ft | 483 kts | 49° |
| 2026-04-10 08:06 | 9.11192 | 43.58001 | 35004 ft | 483 kts | 49° |
| 2026-04-10 08:07 | 9.15454 | 43.63253 | 35006 ft | 483 kts | 49° |
| 2026-04-10 08:07 | 9.19718 | 43.68512 | 35007 ft | 483 kts | 49° |
| 2026-04-10 08:08 | 9.23954 | 43.73735 | 35009 ft | 483 kts | 49° |
| 2026-04-10 08:08 | 9.28040 | 43.78801 | 34995 ft | 483 kts | 49° |
| 2026-04-10 08:09 | 9.32266 | 43.84092 | 35000 ft | 483 kts | 49° |
| 2026-04-10 08:09 | 9.36485 | 43.89385 | 34992 ft | 483 kts | 49° |
| 2026-04-10 08:10 | 9.40681 | 43.94641 | 34995 ft | 483 kts | 49° |
| 2026-04-10 08:10 | 9.44911 | 43.99935 | 35002 ft | 484 kts | 49° |
| 2026-04-10 08:11 | 9.49138 | 44.05234 | 34998 ft | 484 kts | 49° |
| 2026-04-10 08:11 | 9.53444 | 44.10463 | 34996 ft | 482 kts | 44° |
| 2026-04-10 08:12 | 9.58093 | 44.15270 | 35013 ft | 481 kts | 43° |
| 2026-04-10 08:12 | 9.62826 | 44.20074 | 34997 ft | 481 kts | 43° |
| 2026-04-10 08:13 | 9.67536 | 44.24891 | 35007 ft | 482 kts | 43° |
| 2026-04-10 08:13 | 9.72060 | 44.29548 | 35004 ft | 481 kts | 43° |
| 2026-04-10 08:14 | 9.76720 | 44.34362 | 35000 ft | 482 kts | 43° |
| 2026-04-10 08:14 | 9.81412 | 44.39210 | 34997 ft | 482 kts | 43° |
| 2026-04-10 08:15 | 9.86107 | 44.44056 | 34998 ft | 482 kts | 43° |
| 2026-04-10 08:15 | 9.90809 | 44.48911 | 35002 ft | 482 kts | 44° |
| 2026-04-10 08:16 | 9.95468 | 44.53726 | 35004 ft | 481 kts | 44° |
| 2026-04-10 08:16 | 10.00158 | 44.58576 | 35002 ft | 481 kts | 44° |
| 2026-04-10 08:17 | 10.04847 | 44.63428 | 35007 ft | 481 kts | 44° |
| 2026-04-10 08:17 | 10.09536 | 44.68283 | 34986 ft | 482 kts | 44° |
| 2026-04-10 08:18 | 10.14200 | 44.73108 | 35000 ft | 482 kts | 44° |
| 2026-04-10 08:18 | 10.18895 | 44.77967 | 35001 ft | 482 kts | 44° |
| 2026-04-10 08:19 | 10.23588 | 44.82835 | 35001 ft | 483 kts | 44° |
| 2026-04-10 08:19 | 10.28286 | 44.87708 | 35010 ft | 483 kts | 44° |
| 2026-04-10 08:20 | 10.32959 | 44.92550 | 35003 ft | 483 kts | 44° |
| 2026-04-10 08:20 | 10.37658 | 44.97425 | 35002 ft | 483 kts | 44° |
| 2026-04-10 08:21 | 10.42347 | 45.02295 | 35003 ft | 482 kts | 44° |
| 2026-04-10 08:21 | 10.47041 | 45.07171 | 34977 ft | 482 kts | 44° |
| 2026-04-10 08:22 | 10.51696 | 45.12007 | 34984 ft | 482 kts | 44° |
| 2026-04-10 08:22 | 10.56381 | 45.16878 | 34979 ft | 482 kts | 44° |
| 2026-04-10 08:23 | 10.61064 | 45.21753 | 34983 ft | 482 kts | 44° |
| 2026-04-10 08:23 | 10.65568 | 45.26438 | 34982 ft | 482 kts | 44° |
| 2026-04-10 08:24 | 10.70032 | 45.31085 | 34984 ft | 482 kts | 44° |
| 2026-04-10 08:24 | 10.74718 | 45.35959 | 34982 ft | 482 kts | 44° |
| 2026-04-10 08:25 | 10.79407 | 45.40832 | 34983 ft | 482 kts | 44° |
| 2026-04-10 08:25 | 10.84101 | 45.45712 | 34982 ft | 482 kts | 44° |
| 2026-04-10 08:26 | 10.88788 | 45.50591 | 34984 ft | 482 kts | 44° |
| 2026-04-10 08:26 | 10.93444 | 45.55439 | 34999 ft | 482 kts | 44° |
| 2026-04-10 08:27 | 10.98137 | 45.60328 | 34986 ft | 483 kts | 44° |
| 2026-04-10 08:27 | 11.02824 | 45.65213 | 35003 ft | 482 kts | 44° |
| 2026-04-10 08:28 | 11.07515 | 45.70105 | 34997 ft | 483 kts | 44° |
| 2026-04-10 08:28 | 11.11984 | 45.74771 | 34998 ft | 483 kts | 44° |
| 2026-04-10 08:29 | 11.16487 | 45.79468 | 35003 ft | 484 kts | 44° |
| 2026-04-10 08:29 | 11.21185 | 45.84377 | 34984 ft | 484 kts | 44° |
| 2026-04-10 08:30 | 11.25858 | 45.89261 | 34983 ft | 485 kts | 44° |
| 2026-04-10 08:30 | 11.30565 | 45.94183 | 34987 ft | 485 kts | 44° |
| 2026-04-10 08:31 | 11.35277 | 45.99110 | 35016 ft | 485 kts | 44° |
| 2026-04-10 08:31 | 11.39990 | 46.04037 | 35017 ft | 485 kts | 44° |
| 2026-04-10 08:32 | 11.44674 | 46.08937 | 35015 ft | 486 kts | 44° |
| 2026-04-10 08:32 | 11.49384 | 46.13870 | 35018 ft | 485 kts | 44° |
| 2026-04-10 08:33 | 11.54092 | 46.18803 | 35019 ft | 485 kts | 45° |
| 2026-04-10 08:33 | 11.58806 | 46.23742 | 35017 ft | 486 kts | 45° |
| 2026-04-10 08:34 | 11.63482 | 46.28646 | 35021 ft | 486 kts | 44° |
| 2026-04-10 08:34 | 11.68194 | 46.33590 | 35019 ft | 486 kts | 45° |
| 2026-04-10 08:35 | 11.72899 | 46.38533 | 35020 ft | 486 kts | 45° |
| 2026-04-10 08:35 | 11.77573 | 46.43441 | 35014 ft | 486 kts | 45° |
| 2026-04-10 08:36 | 11.81818 | 46.47902 | 35020 ft | 486 kts | 45° |
| 2026-04-10 08:36 | 11.86528 | 46.52853 | 35013 ft | 486 kts | 45° |
| 2026-04-10 08:37 | 11.91231 | 46.57804 | 35018 ft | 486 kts | 45° |
| 2026-04-10 08:37 | 11.95986 | 46.62694 | 35023 ft | 485 kts | 44° |
| 2026-04-10 08:38 | 12.00799 | 46.67537 | 35022 ft | 485 kts | 43° |
| 2026-04-10 08:38 | 12.05565 | 46.72346 | 35020 ft | 485 kts | 44° |
| 2026-04-10 08:39 | 12.10354 | 46.77200 | 35025 ft | 485 kts | 44° |
| 2026-04-10 08:39 | 12.15139 | 46.82058 | 35030 ft | 485 kts | 44° |
| 2026-04-10 08:40 | 12.19924 | 46.86919 | 35019 ft | 485 kts | 44° |
| 2026-04-10 08:40 | 12.24680 | 46.91752 | 34985 ft | 485 kts | 44° |
| 2026-04-10 08:41 | 12.29283 | 46.96438 | 34977 ft | 486 kts | 44° |
| 2026-04-10 08:41 | 12.33892 | 47.01122 | 34983 ft | 486 kts | 44° |
| 2026-04-10 08:42 | 12.38680 | 47.05995 | 34982 ft | 485 kts | 44° |
| 2026-04-10 08:42 | 12.43435 | 47.10831 | 34981 ft | 485 kts | 44° |
| 2026-04-10 08:43 | 12.48218 | 47.15698 | 34987 ft | 484 kts | 44° |
| 2026-04-10 08:43 | 12.52981 | 47.20550 | 35045 ft | 483 kts | 44° |
| 2026-04-10 08:44 | 12.57748 | 47.25397 | 35053 ft | 483 kts | 43° |
| 2026-04-10 08:44 | 12.62969 | 47.29641 | 35059 ft | 483 kts | 32° |
| 2026-04-10 08:45 | 12.68671 | 47.33294 | 35061 ft | 484 kts | 31° |
| 2026-04-10 08:45 | 12.74398 | 47.36932 | 35049 ft | 485 kts | 31° |
| 2026-04-10 08:46 | 12.80116 | 47.40609 | 35045 ft | 486 kts | 32° |
| 2026-04-10 08:46 | 12.85793 | 47.44289 | 35047 ft | 486 kts | 32° |
| 2026-04-10 08:47 | 12.91510 | 47.47999 | 35046 ft | 486 kts | 32° |
| 2026-04-10 08:47 | 12.97224 | 47.51711 | 35050 ft | 486 kts | 32° |
| 2026-04-10 08:48 | 13.02935 | 47.55418 | 35055 ft | 486 kts | 32° |
| 2026-04-10 08:48 | 13.08602 | 47.59101 | 35056 ft | 485 kts | 32° |
| 2026-04-10 08:49 | 13.14309 | 47.62808 | 35055 ft | 485 kts | 32° |
| 2026-04-10 08:49 | 13.20018 | 47.66520 | 35062 ft | 486 kts | 32° |
| 2026-04-10 08:50 | 13.25726 | 47.70237 | 35067 ft | 486 kts | 32° |
| 2026-04-10 08:50 | 13.31439 | 47.73960 | 35071 ft | 486 kts | 32° |
| 2026-04-10 08:51 | 13.36893 | 47.77512 | 35069 ft | 487 kts | 31° |
| 2026-04-10 08:51 | 13.42624 | 47.81246 | 35086 ft | 488 kts | 32° |
| 2026-04-10 08:52 | 13.48356 | 47.84995 | 35075 ft | 489 kts | 32° |
| 2026-04-10 08:52 | 13.54024 | 47.88885 | 35071 ft | 490 kts | 33° |
| 2026-04-10 08:53 | 13.59626 | 47.92807 | 35077 ft | 491 kts | 33° |
| 2026-04-10 08:53 | 13.65286 | 47.96755 | 35084 ft | 492 kts | 33° |
| 2026-04-10 08:54 | 13.70961 | 48.00696 | 35081 ft | 492 kts | 33° |
| 2026-04-10 08:54 | 13.76594 | 48.04608 | 35080 ft | 492 kts | 33° |
| 2026-04-10 08:55 | 13.82265 | 48.08546 | 35083 ft | 492 kts | 33° |
| 2026-04-10 08:55 | 13.87933 | 48.12484 | 35083 ft | 491 kts | 33° |
| 2026-04-10 08:56 | 13.93375 | 48.16268 | 35079 ft | 491 kts | 33° |
| 2026-04-10 08:56 | 13.98993 | 48.20178 | 35097 ft | 490 kts | 33° |
| 2026-04-10 08:57 | 14.04653 | 48.24119 | 35076 ft | 491 kts | 33° |
| 2026-04-10 08:57 | 14.10304 | 48.28057 | 35096 ft | 491 kts | 33° |
| 2026-04-10 08:58 | 14.15957 | 48.32000 | 35080 ft | 491 kts | 33° |
| 2026-04-10 08:58 | 14.21612 | 48.35945 | 35095 ft | 491 kts | 33° |
| 2026-04-10 08:59 | 14.27231 | 48.39866 | 35081 ft | 491 kts | 33° |
| 2026-04-10 08:59 | 14.32890 | 48.43817 | 35074 ft | 492 kts | 33° |
| 2026-04-10 09:00 | 14.38555 | 48.47776 | 35075 ft | 492 kts | 33° |
| 2026-04-10 09:00 | 14.44182 | 48.51709 | 35084 ft | 492 kts | 33° |
| 2026-04-10 09:01 | 14.49842 | 48.55670 | 35065 ft | 492 kts | 33° |
| 2026-04-10 09:01 | 14.55502 | 48.59636 | 35077 ft | 492 kts | 33° |
| 2026-04-10 09:02 | 14.61167 | 48.63605 | 35078 ft | 492 kts | 33° |
| 2026-04-10 09:02 | 14.66829 | 48.67575 | 35067 ft | 492 kts | 33° |
| 2026-04-10 09:03 | 14.72443 | 48.71535 | 35076 ft | 492 kts | 33° |
| 2026-04-10 09:03 | 14.78070 | 48.75551 | 35075 ft | 491 kts | 33° |
| 2026-04-10 09:04 | 14.86557 | 48.81500 | 35063 ft | 491 kts | 32° |
| 2026-04-10 09:04 | 14.92223 | 48.85450 | 35062 ft | 491 kts | 33° |
| 2026-04-10 09:05 | 14.97842 | 48.89396 | 35067 ft | 491 kts | 33° |
| 2026-04-10 09:05 | 15.03496 | 48.93373 | 35065 ft | 492 kts | 33° |
| 2026-04-10 09:06 | 15.08942 | 48.97204 | 35055 ft | 492 kts | 33° |
| 2026-04-10 09:06 | 15.14381 | 49.01031 | 35055 ft | 492 kts | 33° |
| 2026-04-10 09:07 | 15.20006 | 49.04995 | 35061 ft | 492 kts | 33° |
| 2026-04-10 09:07 | 15.25675 | 49.08987 | 35055 ft | 493 kts | 33° |
| 2026-04-10 09:08 | 15.31339 | 49.13000 | 35053 ft | 493 kts | 33° |
| 2026-04-10 09:08 | 15.36977 | 49.17054 | 35057 ft | 493 kts | 33° |
| 2026-04-10 09:09 | 15.42577 | 49.21085 | 35055 ft | 493 kts | 33° |
| 2026-04-10 09:09 | 15.48220 | 49.25145 | 35056 ft | 494 kts | 33° |
| 2026-04-10 09:10 | 15.53865 | 49.29201 | 35055 ft | 494 kts | 33° |
| 2026-04-10 09:10 | 15.59516 | 49.33268 | 35056 ft | 494 kts | 33° |
| 2026-04-10 09:11 | 15.64904 | 49.37149 | 35053 ft | 495 kts | 33° |
| 2026-04-10 09:11 | 15.70351 | 49.41070 | 35034 ft | 496 kts | 33° |
| 2026-04-10 09:12 | 15.76028 | 49.45159 | 35027 ft | 497 kts | 33° |
| 2026-04-10 09:12 | 15.81716 | 49.49262 | 35023 ft | 498 kts | 33° |
| 2026-04-10 09:13 | 15.87378 | 49.53349 | 35029 ft | 499 kts | 33° |
| 2026-04-10 09:13 | 15.93086 | 49.57470 | 35029 ft | 500 kts | 33° |
| 2026-04-10 09:14 | 15.98797 | 49.61598 | 35030 ft | 500 kts | 33° |
| 2026-04-10 09:14 | 16.04513 | 49.65733 | 35025 ft | 501 kts | 33° |
| 2026-04-10 09:15 | 16.10241 | 49.69760 | 35029 ft | 501 kts | 31° |
| 2026-04-10 09:15 | 16.16152 | 49.73590 | 35024 ft | 501 kts | 30° |
| 2026-04-10 09:16 | 16.22077 | 49.77404 | 35027 ft | 501 kts | 30° |
| 2026-04-10 09:16 | 16.27977 | 49.81258 | 35023 ft | 501 kts | 31° |
| 2026-04-10 09:17 | 16.33822 | 49.85107 | 35029 ft | 500 kts | 31° |
| 2026-04-10 09:17 | 16.39693 | 49.88978 | 35029 ft | 500 kts | 31° |
| 2026-04-10 09:18 | 16.45573 | 49.92855 | 35024 ft | 500 kts | 31° |
| 2026-04-10 09:18 | 16.51449 | 49.96725 | 35027 ft | 500 kts | 31° |
| 2026-04-10 09:19 | 16.57282 | 50.00576 | 35027 ft | 500 kts | 31° |
| 2026-04-10 09:19 | 16.63162 | 50.04461 | 35025 ft | 500 kts | 31° |
| 2026-04-10 09:20 | 16.69042 | 50.08346 | 35028 ft | 500 kts | 30° |
| 2026-04-10 09:20 | 16.74926 | 50.12237 | 35018 ft | 501 kts | 30° |
| 2026-04-10 09:21 | 16.80544 | 50.15953 | 35030 ft | 501 kts | 30° |
| 2026-04-10 09:21 | 16.86437 | 50.19857 | 35030 ft | 502 kts | 30° |
| 2026-04-10 09:22 | 16.92336 | 50.23766 | 35029 ft | 502 kts | 30° |
| 2026-04-10 09:22 | 16.98235 | 50.27679 | 35031 ft | 503 kts | 30° |
| 2026-04-10 09:23 | 17.04100 | 50.31574 | 35028 ft | 503 kts | 30° |
| 2026-04-10 09:23 | 17.10000 | 50.35500 | 35030 ft | 503 kts | 30° |
| 2026-04-10 09:24 | 17.15892 | 50.39458 | 35027 ft | 504 kts | 30° |
| 2026-04-10 09:24 | 17.21790 | 50.43425 | 35032 ft | 504 kts | 30° |
| 2026-04-10 09:25 | 17.27664 | 50.47348 | 35026 ft | 504 kts | 30° |
| 2026-04-10 09:25 | 17.33587 | 50.51285 | 35029 ft | 505 kts | 30° |
| 2026-04-10 09:26 | 17.39289 | 50.55079 | 35029 ft | 505 kts | 30° |
| 2026-04-10 09:26 | 17.45212 | 50.59027 | 35027 ft | 505 kts | 30° |
| 2026-04-10 09:27 | 17.51129 | 50.62980 | 35027 ft | 504 kts | 30° |
| 2026-04-10 09:27 | 17.57009 | 50.66910 | 35030 ft | 505 kts | 30° |
| 2026-04-10 09:28 | 17.62926 | 50.70867 | 35028 ft | 505 kts | 30° |
| 2026-04-10 09:28 | 17.68849 | 50.74830 | 35028 ft | 505 kts | 30° |
| 2026-04-10 09:29 | 17.74775 | 50.78798 | 35031 ft | 505 kts | 30° |
| 2026-04-10 09:29 | 17.80656 | 50.82742 | 35027 ft | 505 kts | 30° |
| 2026-04-10 09:30 | 17.86578 | 50.86716 | 35029 ft | 505 kts | 30° |
| 2026-04-10 09:30 | 17.92498 | 50.90691 | 35025 ft | 505 kts | 30° |
| 2026-04-10 09:31 | 17.98424 | 50.94673 | 35028 ft | 505 kts | 30° |
| 2026-04-10 09:31 | 18.04301 | 50.98625 | 35026 ft | 505 kts | 30° |
| 2026-04-10 09:32 | 18.10229 | 51.02615 | 35027 ft | 507 kts | 29° |
| 2026-04-10 09:32 | 18.16168 | 51.06616 | 35032 ft | 508 kts | 29° |
| 2026-04-10 09:33 | 18.22125 | 51.10630 | 35031 ft | 509 kts | 29° |
| 2026-04-10 09:33 | 18.28063 | 51.14636 | 35030 ft | 510 kts | 30° |
| 2026-04-10 09:34 | 18.34038 | 51.18672 | 35026 ft | 511 kts | 29° |
| 2026-04-10 09:34 | 18.40019 | 51.22716 | 35032 ft | 511 kts | 30° |
| 2026-04-10 09:35 | 18.44989 | 51.26078 | 35028 ft | 511 kts | 30° |
| 2026-04-10 09:35 | 18.51378 | 51.31115 | 35022 ft | 515 kts | 44° |
| 2026-04-10 09:36 | 18.55601 | 51.37220 | 35026 ft | 519 kts | 62° |
| 2026-04-10 09:36 | 18.58179 | 51.42935 | 35033 ft | 520 kts | 64° |
| 2026-04-10 09:37 | 18.61202 | 51.49867 | 35033 ft | 521 kts | 64° |
| 2026-04-10 09:37 | 18.64797 | 51.57907 | 35028 ft | 522 kts | 63° |
| 2026-04-10 09:38 | 18.67935 | 51.64814 | 35028 ft | 523 kts | 63° |
| 2026-04-10 09:38 | 18.70546 | 51.70559 | 35027 ft | 523 kts | 63° |
| 2026-04-10 09:39 | 18.73682 | 51.77478 | 35026 ft | 523 kts | 63° |
| 2026-04-10 09:39 | 18.76812 | 51.84401 | 35026 ft | 523 kts | 63° |
| 2026-04-10 09:40 | 18.79938 | 51.91322 | 35027 ft | 523 kts | 63° |
| 2026-04-10 09:40 | 18.82923 | 51.97936 | 35029 ft | 523 kts | 63° |
| 2026-04-10 09:41 | 18.86047 | 52.04870 | 35032 ft | 523 kts | 64° |
| 2026-04-10 09:41 | 18.88831 | 52.11964 | 35021 ft | 524 kts | 68° |
| 2026-04-10 09:42 | 18.91392 | 52.19107 | 35028 ft | 523 kts | 69° |
| 2026-04-10 09:42 | 18.93963 | 52.26298 | 35032 ft | 524 kts | 68° |
| 2026-04-10 09:43 | 18.96562 | 52.33494 | 35027 ft | 524 kts | 68° |
| 2026-04-10 09:43 | 18.99170 | 52.40688 | 35028 ft | 524 kts | 68° |
| 2026-04-10 09:44 | 19.01761 | 52.47834 | 35029 ft | 524 kts | 68° |
| 2026-04-10 09:44 | 19.04361 | 52.55025 | 35028 ft | 524 kts | 68° |
| 2026-04-10 09:45 | 19.06959 | 52.62223 | 35029 ft | 524 kts | 68° |
| 2026-04-10 09:45 | 19.09554 | 52.69421 | 35028 ft | 524 kts | 68° |
| 2026-04-10 09:46 | 19.12127 | 52.76570 | 35026 ft | 524 kts | 68° |
| 2026-04-10 09:46 | 19.14716 | 52.83768 | 35029 ft | 524 kts | 69° |
| 2026-04-10 09:47 | 19.17299 | 52.90964 | 35029 ft | 524 kts | 69° |
| 2026-04-10 09:47 | 19.19883 | 52.98171 | 35029 ft | 524 kts | 69° |
| 2026-04-10 09:48 | 19.22444 | 53.05330 | 35030 ft | 524 kts | 69° |
| 2026-04-10 09:48 | 19.25025 | 53.12548 | 35027 ft | 524 kts | 69° |
| 2026-04-10 09:49 | 19.27600 | 53.19760 | 35025 ft | 524 kts | 69° |
| 2026-04-10 09:49 | 19.30176 | 53.26984 | 35030 ft | 524 kts | 69° |
| 2026-04-10 09:50 | 19.32732 | 53.34164 | 35024 ft | 525 kts | 69° |
| 2026-04-10 09:50 | 19.35204 | 53.41111 | 35030 ft | 524 kts | 69° |
| 2026-04-10 09:51 | 19.37669 | 53.48059 | 35025 ft | 525 kts | 69° |
| 2026-04-10 09:51 | 19.40233 | 53.55296 | 35029 ft | 525 kts | 69° |
| 2026-04-10 09:52 | 19.42781 | 53.62494 | 35029 ft | 526 kts | 69° |
| 2026-04-10 09:52 | 19.45347 | 53.69751 | 35031 ft | 527 kts | 69° |
| 2026-04-10 09:53 | 19.47913 | 53.77027 | 35026 ft | 527 kts | 69° |
| 2026-04-10 09:53 | 19.50480 | 53.84305 | 35030 ft | 528 kts | 69° |
| 2026-04-10 09:54 | 19.53032 | 53.91552 | 35027 ft | 529 kts | 69° |
| 2026-04-10 09:54 | 19.55598 | 53.98860 | 35030 ft | 529 kts | 69° |
| 2026-04-10 09:55 | 19.58160 | 54.06179 | 35031 ft | 530 kts | 69° |
| 2026-04-10 09:55 | 19.60620 | 54.13224 | 35026 ft | 529 kts | 69° |
| 2026-04-10 09:56 | 19.63082 | 54.20274 | 35028 ft | 529 kts | 69° |
| 2026-04-10 09:56 | 19.65610 | 54.27536 | 35030 ft | 528 kts | 69° |
| 2026-04-10 09:57 | 19.68149 | 54.34846 | 35026 ft | 528 kts | 69° |
| 2026-04-10 09:57 | 19.70684 | 54.42144 | 35029 ft | 527 kts | 69° |
| 2026-04-10 09:58 | 19.73216 | 54.49444 | 35029 ft | 526 kts | 69° |
| 2026-04-10 09:58 | 19.75723 | 54.56685 | 35027 ft | 526 kts | 69° |
| 2026-04-10 09:59 | 19.78242 | 54.63972 | 35028 ft | 526 kts | 69° |
| 2026-04-10 09:59 | 19.80756 | 54.71256 | 35029 ft | 525 kts | 69° |
| 2026-04-10 10:00 | 19.83265 | 54.78532 | 35026 ft | 525 kts | 69° |
| 2026-04-10 10:00 | 19.85751 | 54.85760 | 35030 ft | 524 kts | 69° |
| 2026-04-10 10:01 | 19.88247 | 54.93025 | 35029 ft | 523 kts | 69° |
| 2026-04-10 10:01 | 19.90739 | 55.00282 | 35028 ft | 523 kts | 70° |
| 2026-04-10 10:02 | 19.93226 | 55.07540 | 35030 ft | 522 kts | 70° |
| 2026-04-10 10:02 | 19.95692 | 55.14740 | 35029 ft | 522 kts | 70° |
| 2026-04-10 10:03 | 19.98168 | 55.21992 | 35029 ft | 522 kts | 70° |
| 2026-04-10 10:03 | 20.00641 | 55.29247 | 35031 ft | 522 kts | 70° |
| 2026-04-10 10:04 | 20.04342 | 55.40118 | 35030 ft | 525 kts | 70° |
| 2026-04-10 10:05 | 20.06827 | 55.47428 | 35033 ft | 527 kts | 70° |
| 2026-04-10 10:05 | 20.09221 | 55.54488 | 35034 ft | 528 kts | 70° |
| 2026-04-10 10:06 | 20.11714 | 55.61843 | 35028 ft | 528 kts | 70° |
| 2026-04-10 10:06 | 20.14182 | 55.69145 | 35026 ft | 528 kts | 70° |
| 2026-04-10 10:07 | 20.17139 | 55.76262 | 35032 ft | 525 kts | 59° |
| 2026-04-10 10:07 | 20.21160 | 55.82705 | 35027 ft | 521 kts | 49° |
| 2026-04-10 10:08 | 20.25760 | 55.88650 | 35029 ft | 519 kts | 49° |
| 2026-04-10 10:08 | 20.30314 | 55.94606 | 35030 ft | 519 kts | 49° |
| 2026-04-10 10:09 | 20.34799 | 56.00566 | 35025 ft | 519 kts | 49° |
| 2026-04-10 10:09 | 20.39319 | 56.06559 | 35027 ft | 519 kts | 49° |
| 2026-04-10 10:10 | 20.43848 | 56.12569 | 35025 ft | 520 kts | 49° |
| 2026-04-10 10:10 | 20.48202 | 56.18356 | 35031 ft | 520 kts | 49° |
| 2026-04-10 10:11 | 20.52702 | 56.24339 | 35018 ft | 521 kts | 49° |
| 2026-04-10 10:11 | 20.57235 | 56.30375 | 35009 ft | 522 kts | 49° |
| 2026-04-10 10:12 | 20.61770 | 56.36435 | 35014 ft | 522 kts | 49° |
| 2026-04-10 10:12 | 20.66278 | 56.42464 | 35008 ft | 523 kts | 49° |
| 2026-04-10 10:13 | 20.70821 | 56.48538 | 35010 ft | 524 kts | 49° |
| 2026-04-10 10:13 | 20.75366 | 56.54630 | 35011 ft | 525 kts | 49° |
| 2026-04-10 10:14 | 20.79918 | 56.60743 | 35012 ft | 526 kts | 49° |
| 2026-04-10 10:14 | 20.84446 | 56.66823 | 35016 ft | 526 kts | 49° |
| 2026-04-10 10:15 | 20.89266 | 56.72687 | 35006 ft | 523 kts | 39° |
| 2026-04-10 10:15 | 20.95111 | 56.77219 | 35009 ft | 516 kts | 25° |
| 2026-04-10 10:16 | 21.01567 | 56.80497 | 35005 ft | 513 kts | 20° |
| 2026-04-10 10:16 | 21.08018 | 56.83633 | 35011 ft | 513 kts | 20° |
| 2026-04-10 10:17 | 21.14494 | 56.86870 | 35011 ft | 514 kts | 21° |
| 2026-04-10 10:17 | 21.20959 | 56.90142 | 35012 ft | 514 kts | 21° |
| 2026-04-10 10:18 | 21.27432 | 56.93414 | 35014 ft | 515 kts | 21° |
| 2026-04-10 10:18 | 21.33862 | 56.96672 | 35010 ft | 515 kts | 21° |
| 2026-04-10 10:19 | 21.40336 | 56.99962 | 35018 ft | 515 kts | 21° |
| 2026-04-10 10:19 | 21.46805 | 57.03254 | 35020 ft | 515 kts | 21° |
| 2026-04-10 10:20 | 21.53283 | 57.06553 | 35023 ft | 515 kts | 21° |
| 2026-04-10 10:20 | 21.59718 | 57.09833 | 35014 ft | 515 kts | 20° |
| 2026-04-10 10:21 | 21.66200 | 57.13124 | 35014 ft | 516 kts | 20° |
| 2026-04-10 10:21 | 21.72694 | 57.16396 | 35016 ft | 515 kts | 20° |
| 2026-04-10 10:22 | 21.79180 | 57.19698 | 35019 ft | 516 kts | 20° |
| 2026-04-10 10:22 | 21.85657 | 57.23017 | 35022 ft | 515 kts | 20° |
| 2026-04-10 10:23 | 21.92086 | 57.26312 | 35029 ft | 515 kts | 20° |
| 2026-04-10 10:23 | 21.98565 | 57.29635 | 35029 ft | 516 kts | 20° |
| 2026-04-10 10:24 | 22.05046 | 57.32962 | 35025 ft | 517 kts | 20° |
| 2026-04-10 10:24 | 22.11548 | 57.36300 | 35027 ft | 518 kts | 20° |
| 2026-04-10 10:25 | 22.18020 | 57.39626 | 35031 ft | 519 kts | 20° |
| 2026-04-10 10:25 | 22.24549 | 57.42987 | 35027 ft | 520 kts | 20° |
| 2026-04-10 10:26 | 22.31090 | 57.46359 | 35028 ft | 522 kts | 20° |
| 2026-04-10 10:26 | 22.37643 | 57.49733 | 35033 ft | 522 kts | 20° |
| 2026-04-10 10:27 | 22.44201 | 57.53107 | 35045 ft | 522 kts | 20° |
| 2026-04-10 10:27 | 22.50721 | 57.56462 | 35031 ft | 522 kts | 20° |
| 2026-04-10 10:28 | 22.57280 | 57.59842 | 35035 ft | 522 kts | 20° |
| 2026-04-10 10:28 | 22.63829 | 57.63223 | 35034 ft | 521 kts | 20° |
| 2026-04-10 10:29 | 22.70373 | 57.66605 | 35039 ft | 521 kts | 20° |
| 2026-04-10 10:29 | 22.76874 | 57.69968 | 35038 ft | 521 kts | 20° |
| 2026-04-10 10:30 | 22.83421 | 57.73358 | 35038 ft | 522 kts | 20° |
| 2026-04-10 10:30 | 22.89942 | 57.76871 | 35043 ft | 526 kts | 25° |
| 2026-04-10 10:31 | 22.96119 | 57.81223 | 35039 ft | 531 kts | 29° |
| 2026-04-10 10:31 | 23.02240 | 57.85627 | 35045 ft | 532 kts | 27° |
| 2026-04-10 10:32 | 23.08454 | 57.90019 | 35054 ft | 533 kts | 27° |
| 2026-04-10 10:32 | 23.14680 | 57.94440 | 35048 ft | 535 kts | 27° |
| 2026-04-10 10:33 | 23.20852 | 57.98985 | 35041 ft | 540 kts | 35° |
| 2026-04-10 10:33 | 23.23563 | 58.01846 | 35041 ft | 547 kts | 46° |
| 2026-04-10 10:33 | 23.25862 | 58.05160 | 35060 ft | 551 kts | 55° |
| 2026-04-10 10:33 | 23.27655 | 58.08790 | 35037 ft | 554 kts | 66° |
| 2026-04-10 10:34 | 23.29104 | 58.12671 | 35059 ft | 555 kts | 68° |
| 2026-04-10 10:34 | 23.31917 | 58.20506 | 35050 ft | 556 kts | 68° |
| 2026-04-10 10:35 | 23.34849 | 58.28300 | 35054 ft | 557 kts | 66° |
| 2026-04-10 10:35 | 23.37722 | 58.35777 | 35058 ft | 556 kts | 66° |
| 2026-04-10 10:36 | 23.40894 | 58.43005 | 35053 ft | 554 kts | 58° |
| 2026-04-10 10:36 | 23.45228 | 58.49898 | 35048 ft | 550 kts | 47° |
| 2026-04-10 10:37 | 23.50116 | 58.56319 | 35056 ft | 551 kts | 47° |
| 2026-04-10 10:37 | 23.55014 | 58.62766 | 35046 ft | 553 kts | 47° |
| 2026-04-10 10:38 | 23.59827 | 58.69222 | 35042 ft | 552 kts | 47° |
| 2026-04-10 10:38 | 23.64655 | 58.75728 | 35045 ft | 551 kts | 47° |
| 2026-04-10 10:39 | 23.69474 | 58.82212 | 35046 ft | 549 kts | 47° |
| 2026-04-10 10:39 | 23.74281 | 58.88682 | 35041 ft | 548 kts | 47° |
| 2026-04-10 10:40 | 23.79042 | 58.95100 | 35047 ft | 547 kts | 47° |
| 2026-04-10 10:40 | 23.83646 | 59.01314 | 35052 ft | 546 kts | 48° |
| 2026-04-10 10:41 | 23.88239 | 59.07523 | 35045 ft | 546 kts | 48° |
| 2026-04-10 10:41 | 23.92823 | 59.14157 | 35055 ft | 549 kts | 54° |
| 2026-04-10 10:42 | 23.96409 | 59.21485 | 35042 ft | 552 kts | 64° |
| 2026-04-10 10:42 | 23.99663 | 59.29091 | 35046 ft | 552 kts | 63° |
| 2026-04-10 10:43 | 24.03036 | 59.36657 | 35039 ft | 554 kts | 62° |
| 2026-04-10 10:43 | 24.06434 | 59.44238 | 35043 ft | 556 kts | 62° |
| 2026-04-10 10:44 | 24.09829 | 59.51853 | 35043 ft | 558 kts | 62° |
| 2026-04-10 10:44 | 24.13201 | 59.59449 | 35041 ft | 559 kts | 62° |
| 2026-04-10 10:45 | 24.16593 | 59.67110 | 35036 ft | 559 kts | 63° |
| 2026-04-10 10:45 | 24.19978 | 59.74765 | 35035 ft | 558 kts | 63° |
| 2026-04-10 10:46 | 24.23357 | 59.82413 | 35038 ft | 556 kts | 63° |
| 2026-04-10 10:46 | 24.26693 | 59.89986 | 35034 ft | 555 kts | 63° |
| 2026-04-10 10:47 | 24.30043 | 59.97598 | 35036 ft | 554 kts | 63° |
| 2026-04-10 10:47 | 24.33383 | 60.05200 | 35035 ft | 553 kts | 63° |
| 2026-04-10 10:48 | 24.36695 | 60.12751 | 35037 ft | 553 kts | 63° |
| 2026-04-10 10:48 | 24.40025 | 60.20351 | 35035 ft | 553 kts | 63° |
| 2026-04-10 10:49 | 24.43355 | 60.27960 | 35043 ft | 554 kts | 63° |
| 2026-04-10 10:49 | 24.46685 | 60.35587 | 35026 ft | 555 kts | 63° |
| 2026-04-10 10:50 | 24.49892 | 60.42946 | 35031 ft | 557 kts | 63° |
| 2026-04-10 10:50 | 24.53080 | 60.50273 | 35029 ft | 558 kts | 63° |
| 2026-04-10 10:51 | 24.56423 | 60.57970 | 35038 ft | 559 kts | 63° |
| 2026-04-10 10:51 | 24.59767 | 60.65685 | 35036 ft | 559 kts | 63° |
| 2026-04-10 10:52 | 24.63092 | 60.73417 | 35036 ft | 560 kts | 63° |
| 2026-04-10 10:52 | 24.66388 | 60.81102 | 35035 ft | 560 kts | 63° |
| 2026-04-10 10:53 | 24.69710 | 60.88851 | 35029 ft | 560 kts | 63° |
| 2026-04-10 10:53 | 24.72980 | 60.96634 | 35031 ft | 561 kts | 64° |
| 2026-04-10 10:54 | 24.76124 | 61.04486 | 35025 ft | 561 kts | 65° |
| 2026-04-10 10:54 | 24.79242 | 61.12293 | 35029 ft | 561 kts | 65° |
| 2026-04-10 10:55 | 24.82275 | 61.19846 | 35026 ft | 561 kts | 65° |
| 2026-04-10 10:55 | 24.85323 | 61.27431 | 35221 ft | 566 kts | 65° |
| 2026-04-10 10:55 | 24.86913 | 61.31391 | 35645 ft | 564 kts | 65° |
| 2026-04-10 10:56 | 24.88490 | 61.35325 | 36132 ft | 560 kts | 65° |
| 2026-04-10 10:56 | 24.90036 | 61.39186 | 36557 ft | 558 kts | 65° |
| 2026-04-10 10:56 | 24.91598 | 61.43090 | 36959 ft | 555 kts | 65° |
| 2026-04-10 10:57 | 24.94724 | 61.50879 | 37012 ft | 554 kts | 64° |
| 2026-04-10 10:57 | 24.97862 | 61.58563 | 37011 ft | 547 kts | 64° |
| 2026-04-10 10:58 | 25.00975 | 61.66209 | 37021 ft | 546 kts | 64° |
| 2026-04-10 10:58 | 25.04079 | 61.73844 | 37030 ft | 546 kts | 63° |
| 2026-04-10 10:59 | 25.07871 | 61.80990 | 37035 ft | 543 kts | 51° |
| 2026-04-10 10:59 | 25.12645 | 61.87387 | 37034 ft | 539 kts | 43° |
| 2026-04-10 11:00 | 25.17754 | 61.93469 | 37019 ft | 541 kts | 42° |
| 2026-04-10 11:00 | 25.22876 | 61.99588 | 37020 ft | 544 kts | 43° |
| 2026-04-10 11:01 | 25.27942 | 62.05726 | 37022 ft | 545 kts | 43° |
| 2026-04-10 11:01 | 25.33042 | 62.11947 | 37020 ft | 546 kts | 43° |
| 2026-04-10 11:02 | 25.38145 | 62.18177 | 37021 ft | 547 kts | 43° |
| 2026-04-10 11:02 | 25.43263 | 62.24430 | 37015 ft | 548 kts | 43° |
| 2026-04-10 11:03 | 25.48346 | 62.30644 | 37019 ft | 549 kts | 43° |
| 2026-04-10 11:03 | 25.53466 | 62.36911 | 37017 ft | 549 kts | 43° |
| 2026-04-10 11:04 | 25.58585 | 62.43188 | 37013 ft | 549 kts | 43° |
| 2026-04-10 11:04 | 25.63698 | 62.49469 | 37009 ft | 549 kts | 43° |
| 2026-04-10 11:05 | 25.71118 | 62.58597 | 37006 ft | 547 kts | 43° |
| 2026-04-10 11:05 | 25.76012 | 62.64623 | 37007 ft | 546 kts | 43° |
| 2026-04-10 11:06 | 25.81088 | 62.70888 | 37009 ft | 546 kts | 43° |
| 2026-04-10 11:06 | 25.86160 | 62.77153 | 37010 ft | 546 kts | 43° |
| 2026-04-10 11:07 | 25.91234 | 62.83430 | 37013 ft | 546 kts | 43° |
| 2026-04-10 11:07 | 25.96270 | 62.89670 | 37006 ft | 546 kts | 44° |
| 2026-04-10 11:08 | 26.01338 | 62.95956 | 37010 ft | 546 kts | 43° |
| 2026-04-10 11:08 | 26.06416 | 63.02239 | 37004 ft | 548 kts | 43° |
| 2026-04-10 11:09 | 26.11521 | 63.08557 | 37009 ft | 550 kts | 43° |
| 2026-04-10 11:09 | 26.16609 | 63.14867 | 37006 ft | 553 kts | 43° |
| 2026-04-10 11:10 | 26.21554 | 63.21012 | 37004 ft | 554 kts | 43° |
| 2026-04-10 11:10 | 26.26506 | 63.27177 | 37005 ft | 556 kts | 43° |
| 2026-04-10 11:11 | 26.31660 | 63.33602 | 37003 ft | 557 kts | 44° |
| 2026-04-10 11:11 | 26.36787 | 63.39999 | 36993 ft | 557 kts | 44° |
| 2026-04-10 11:12 | 26.41939 | 63.46440 | 36984 ft | 556 kts | 44° |
| 2026-04-10 11:12 | 26.47077 | 63.52874 | 36987 ft | 555 kts | 44° |
| 2026-04-10 11:13 | 26.52204 | 63.59299 | 36992 ft | 554 kts | 44° |
| 2026-04-10 11:13 | 26.57282 | 63.65673 | 36985 ft | 553 kts | 44° |
| 2026-04-10 11:14 | 26.62387 | 63.72091 | 36988 ft | 552 kts | 44° |
| 2026-04-10 11:14 | 26.67478 | 63.78501 | 36991 ft | 551 kts | 44° |
| 2026-04-10 11:15 | 26.72562 | 63.84911 | 36989 ft | 551 kts | 44° |
| 2026-04-10 11:15 | 26.77614 | 63.91288 | 36993 ft | 551 kts | 44° |
| 2026-04-10 11:16 | 26.82703 | 63.97724 | 36996 ft | 553 kts | 44° |
| 2026-04-10 11:16 | 26.87802 | 64.04182 | 36991 ft | 554 kts | 44° |
| 2026-04-10 11:17 | 26.92908 | 64.10659 | 36992 ft | 556 kts | 44° |
| 2026-04-10 11:17 | 26.98079 | 64.17007 | 36988 ft | 554 kts | 41° |
| 2026-04-10 11:18 | 27.03479 | 64.23166 | 36988 ft | 554 kts | 40° |
| 2026-04-10 11:18 | 27.08914 | 64.29299 | 36993 ft | 555 kts | 40° |
| 2026-04-10 11:19 | 27.14330 | 64.35478 | 36990 ft | 556 kts | 40° |
| 2026-04-10 11:19 | 27.19734 | 64.41691 | 36994 ft | 556 kts | 40° |
| 2026-04-10 11:20 | 27.24895 | 64.47637 | 36991 ft | 557 kts | 40° |
| 2026-04-10 11:20 | 27.30091 | 64.53627 | 36989 ft | 558 kts | 40° |
| 2026-04-10 11:21 | 27.35510 | 64.59880 | 36994 ft | 558 kts | 40° |
| 2026-04-10 11:21 | 27.40926 | 64.66141 | 36983 ft | 559 kts | 40° |
| 2026-04-10 11:22 | 27.46337 | 64.72410 | 36978 ft | 558 kts | 40° |
| 2026-04-10 11:22 | 27.51715 | 64.78647 | 36982 ft | 559 kts | 40° |
| 2026-04-10 11:23 | 27.57133 | 64.84933 | 36986 ft | 559 kts | 40° |
| 2026-04-10 11:23 | 27.62548 | 64.91231 | 36984 ft | 559 kts | 40° |
| 2026-04-10 11:24 | 27.67958 | 64.97532 | 36985 ft | 559 kts | 40° |
| 2026-04-10 11:24 | 27.73329 | 65.03800 | 36981 ft | 559 kts | 40° |
| 2026-04-10 11:25 | 27.78522 | 65.09866 | 36975 ft | 559 kts | 40° |
| 2026-04-10 11:25 | 27.83711 | 65.15938 | 36980 ft | 559 kts | 41° |
| 2026-04-10 11:26 | 27.89114 | 65.22267 | 36984 ft | 559 kts | 41° |
| 2026-04-10 11:26 | 27.94480 | 65.28564 | 36983 ft | 560 kts | 41° |
| 2026-04-10 11:27 | 27.99887 | 65.34922 | 36986 ft | 561 kts | 41° |
| 2026-04-10 11:27 | 28.05304 | 65.41297 | 36970 ft | 563 kts | 40° |
| 2026-04-10 11:28 | 28.10734 | 65.47697 | 36985 ft | 564 kts | 40° |
| 2026-04-10 11:28 | 28.16138 | 65.54064 | 36984 ft | 565 kts | 40° |
| 2026-04-10 11:29 | 28.21586 | 65.60495 | 36990 ft | 566 kts | 41° |
| 2026-04-10 11:29 | 28.27028 | 65.66936 | 36987 ft | 566 kts | 41° |
| 2026-04-10 11:30 | 28.32471 | 65.73389 | 36984 ft | 566 kts | 41° |
| 2026-04-10 11:30 | 28.37921 | 65.79857 | 36981 ft | 566 kts | 41° |
| 2026-04-10 11:31 | 28.43323 | 65.86276 | 36976 ft | 566 kts | 41° |
| 2026-04-10 11:31 | 28.48753 | 65.92744 | 36972 ft | 565 kts | 41° |
| 2026-04-10 11:32 | 28.54171 | 65.99207 | 36979 ft | 564 kts | 41° |
| 2026-04-10 11:32 | 28.59580 | 66.05667 | 36988 ft | 564 kts | 41° |
| 2026-04-10 11:33 | 28.64952 | 66.12090 | 36983 ft | 563 kts | 41° |
| 2026-04-10 11:33 | 28.70349 | 66.18559 | 36984 ft | 563 kts | 41° |
| 2026-04-10 11:34 | 28.75746 | 66.25038 | 36979 ft | 564 kts | 41° |
| 2026-04-10 11:34 | 28.81146 | 66.31528 | 36985 ft | 565 kts | 41° |
| 2026-04-10 11:35 | 28.86513 | 66.37993 | 36983 ft | 565 kts | 40° |
| 2026-04-10 11:35 | 28.91913 | 66.44506 | 36978 ft | 565 kts | 41° |
| 2026-04-10 11:36 | 28.97315 | 66.51033 | 36981 ft | 565 kts | 41° |
| 2026-04-10 11:36 | 29.02716 | 66.57567 | 36981 ft | 566 kts | 41° |
| 2026-04-10 11:37 | 29.08124 | 66.64109 | 36982 ft | 566 kts | 40° |
| 2026-04-10 11:37 | 29.13498 | 66.70600 | 36988 ft | 566 kts | 40° |
| 2026-04-10 11:38 | 29.18906 | 66.77145 | 36987 ft | 566 kts | 40° |
| 2026-04-10 11:38 | 29.24305 | 66.83698 | 36974 ft | 566 kts | 40° |
| 2026-04-10 11:39 | 29.29703 | 66.90260 | 36975 ft | 566 kts | 40° |
| 2026-04-10 11:39 | 29.35057 | 66.96780 | 36978 ft | 565 kts | 40° |
| 2026-04-10 11:40 | 29.40437 | 67.03344 | 36989 ft | 564 kts | 40° |
| 2026-04-10 11:40 | 29.45819 | 67.09914 | 36985 ft | 565 kts | 40° |
| 2026-04-10 11:41 | 29.51205 | 67.16503 | 36982 ft | 567 kts | 41° |
| 2026-04-10 11:41 | 29.56558 | 67.23066 | 36969 ft | 566 kts | 41° |
| 2026-04-10 11:42 | 29.61936 | 67.29668 | 36975 ft | 565 kts | 41° |
| 2026-04-10 11:42 | 29.67305 | 67.36272 | 36973 ft | 566 kts | 41° |
| 2026-04-10 11:43 | 29.72678 | 67.42891 | 36984 ft | 566 kts | 40° |
| 2026-04-10 11:43 | 29.78016 | 67.49461 | 36985 ft | 566 kts | 40° |
| 2026-04-10 11:44 | 29.83404 | 67.56080 | 36986 ft | 566 kts | 40° |
| 2026-04-10 11:44 | 29.88790 | 67.62712 | 36986 ft | 567 kts | 40° |
| 2026-04-10 11:45 | 29.94172 | 67.69356 | 36974 ft | 567 kts | 40° |
| 2026-04-10 11:45 | 29.99549 | 67.76007 | 36978 ft | 566 kts | 41° |
| 2026-04-10 11:46 | 30.04880 | 67.82611 | 36986 ft | 566 kts | 40° |
| 2026-04-10 11:46 | 30.10252 | 67.89267 | 36986 ft | 567 kts | 40° |
| 2026-04-10 11:47 | 30.15684 | 67.95871 | 36973 ft | 566 kts | 40° |
| 2026-04-10 11:47 | 30.21122 | 68.02465 | 36967 ft | 567 kts | 40° |
| 2026-04-10 11:48 | 30.26500 | 68.09028 | 36985 ft | 565 kts | 40° |
| 2026-04-10 11:48 | 30.31888 | 68.15654 | 36973 ft | 565 kts | 40° |
| 2026-04-10 11:49 | 30.37246 | 68.22288 | 36985 ft | 564 kts | 40° |
| 2026-04-10 11:49 | 30.42604 | 68.28936 | 36977 ft | 564 kts | 40° |
| 2026-04-10 11:50 | 30.47750 | 68.35318 | 36989 ft | 564 kts | 40° |
| 2026-04-10 11:50 | 30.53069 | 68.41926 | 36986 ft | 565 kts | 40° |
| 2026-04-10 11:51 | 30.58426 | 68.48595 | 36974 ft | 565 kts | 40° |
| 2026-04-10 11:51 | 30.63778 | 68.55273 | 36981 ft | 565 kts | 40° |
| 2026-04-10 11:52 | 30.69130 | 68.61958 | 36982 ft | 565 kts | 40° |
| 2026-04-10 11:52 | 30.74484 | 68.68660 | 36980 ft | 566 kts | 40° |
| 2026-04-10 11:53 | 30.79801 | 68.75322 | 36980 ft | 567 kts | 40° |
| 2026-04-10 11:53 | 30.85158 | 68.82051 | 36984 ft | 567 kts | 40° |
| 2026-04-10 11:54 | 30.90514 | 68.88790 | 36986 ft | 567 kts | 40° |
| 2026-04-10 11:54 | 30.95862 | 68.95533 | 36973 ft | 567 kts | 40° |
| 2026-04-10 11:55 | 31.00967 | 69.01979 | 36989 ft | 566 kts | 40° |
| 2026-04-10 11:55 | 31.06301 | 69.08727 | 36988 ft | 565 kts | 40° |
| 2026-04-10 11:56 | 31.11625 | 69.15467 | 36984 ft | 566 kts | 41° |
| 2026-04-10 11:56 | 31.16956 | 69.22232 | 36985 ft | 566 kts | 41° |
| 2026-04-10 11:57 | 31.22256 | 69.28974 | 36986 ft | 567 kts | 41° |
| 2026-04-10 11:57 | 31.27592 | 69.35772 | 36988 ft | 567 kts | 40° |
| 2026-04-10 11:58 | 31.32924 | 69.42576 | 36985 ft | 567 kts | 40° |
| 2026-04-10 11:58 | 31.38009 | 69.49686 | 36982 ft | 574 kts | 49° |
| 2026-04-10 11:59 | 31.42614 | 69.57325 | 36979 ft | 575 kts | 50° |
| 2026-04-10 11:59 | 31.47156 | 69.64944 | 36982 ft | 574 kts | 50° |
| 2026-04-10 12:00 | 31.51782 | 69.72568 | 36984 ft | 574 kts | 49° |
| 2026-04-10 12:00 | 31.56414 | 69.80181 | 36973 ft | 573 kts | 49° |
| 2026-04-10 12:01 | 31.61016 | 69.87717 | 36982 ft | 571 kts | 48° |
| 2026-04-10 12:01 | 31.65726 | 69.95222 | 37007 ft | 571 kts | 48° |
| 2026-04-10 12:02 | 31.70452 | 70.02725 | 36991 ft | 572 kts | 48° |
| 2026-04-10 12:02 | 31.75170 | 70.10270 | 36986 ft | 573 kts | 48° |
| 2026-04-10 12:03 | 31.79869 | 70.17834 | 36985 ft | 572 kts | 48° |
| 2026-04-10 12:03 | 31.84526 | 70.25343 | 36989 ft | 571 kts | 48° |
| 2026-04-10 12:04 | 31.89201 | 70.32885 | 36992 ft | 571 kts | 48° |
| 2026-04-10 12:04 | 31.93878 | 70.40445 | 36993 ft | 571 kts | 49° |
| 2026-04-10 12:05 | 31.98364 | 70.47711 | 36991 ft | 571 kts | 49° |
| 2026-04-10 12:05 | 32.03005 | 70.55244 | 36995 ft | 572 kts | 49° |
| 2026-04-10 12:06 | 32.07665 | 70.62823 | 37000 ft | 571 kts | 49° |
| 2026-04-10 12:06 | 32.12321 | 70.70408 | 37000 ft | 570 kts | 48° |
| 2026-04-10 12:07 | 32.19282 | 70.81782 | 37001 ft | 570 kts | 48° |
| 2026-04-10 12:08 | 32.23915 | 70.89369 | 37000 ft | 569 kts | 48° |
| 2026-04-10 12:08 | 32.28511 | 70.96910 | 36997 ft | 569 kts | 49° |
| 2026-04-10 12:09 | 32.33126 | 71.04502 | 37003 ft | 569 kts | 48° |
| 2026-04-10 12:09 | 32.37737 | 71.12100 | 37006 ft | 568 kts | 48° |
| 2026-04-10 12:10 | 32.42136 | 71.19359 | 37009 ft | 568 kts | 48° |
| 2026-04-10 12:10 | 32.46734 | 71.26967 | 37011 ft | 568 kts | 48° |
| 2026-04-10 12:11 | 32.51333 | 71.34592 | 37006 ft | 569 kts | 48° |
| 2026-04-10 12:11 | 32.55927 | 71.42218 | 37008 ft | 568 kts | 48° |
| 2026-04-10 12:12 | 32.60476 | 71.49789 | 36998 ft | 568 kts | 48° |
| 2026-04-10 12:12 | 32.65052 | 71.57416 | 37004 ft | 567 kts | 48° |
| 2026-04-10 12:13 | 32.69615 | 71.65040 | 37004 ft | 566 kts | 48° |
| 2026-04-10 12:13 | 32.74166 | 71.72662 | 37010 ft | 565 kts | 49° |
| 2026-04-10 12:14 | 32.78677 | 71.80229 | 37001 ft | 565 kts | 49° |
| 2026-04-10 12:14 | 32.83211 | 71.87854 | 37008 ft | 564 kts | 49° |
| 2026-04-10 12:15 | 32.87727 | 71.95463 | 37010 ft | 563 kts | 49° |
| 2026-04-10 12:15 | 32.92277 | 72.03051 | 37007 ft | 562 kts | 47° |
| 2026-04-10 12:16 | 32.96945 | 72.10410 | 37014 ft | 560 kts | 46° |
| 2026-04-10 12:16 | 33.01668 | 72.17785 | 37009 ft | 559 kts | 46° |
| 2026-04-10 12:17 | 33.06344 | 72.25178 | 37013 ft | 558 kts | 46° |
| 2026-04-10 12:17 | 33.10997 | 72.32589 | 37018 ft | 557 kts | 46° |
| 2026-04-10 12:18 | 33.15635 | 72.39996 | 37024 ft | 557 kts | 46° |
| 2026-04-10 12:18 | 33.20230 | 72.47343 | 37018 ft | 556 kts | 46° |
| 2026-04-10 12:19 | 33.24851 | 72.54743 | 37018 ft | 556 kts | 47° |
| 2026-04-10 12:19 | 33.29467 | 72.62147 | 37019 ft | 555 kts | 47° |
| 2026-04-10 12:20 | 33.33888 | 72.69258 | 37026 ft | 555 kts | 46° |
| 2026-04-10 12:20 | 33.38459 | 72.76625 | 37014 ft | 555 kts | 47° |
| 2026-04-10 12:21 | 33.43051 | 72.84055 | 37020 ft | 555 kts | 47° |
| 2026-04-10 12:21 | 33.47633 | 72.91487 | 37026 ft | 555 kts | 47° |
| 2026-04-10 12:22 | 33.52220 | 72.98941 | 37018 ft | 556 kts | 47° |
| 2026-04-10 12:22 | 33.56783 | 73.06337 | 37015 ft | 552 kts | 44° |
| 2026-04-10 12:22 | 33.59398 | 73.09612 | 37010 ft | 537 kts | 31° |
| 2026-04-10 12:23 | 33.62396 | 73.12163 | 37026 ft | 521 kts | 20° |
| 2026-04-10 12:23 | 33.65586 | 73.14091 | 37023 ft | 507 kts | 11° |
| 2026-04-10 12:23 | 33.68888 | 73.15315 | 37022 ft | 489 kts | 1° |
| 2026-04-10 12:24 | 33.75522 | 73.17176 | 37020 ft | 491 kts | 1° |
| 2026-04-10 12:24 | 33.81058 | 73.18757 | 37019 ft | 493 kts | 2° |
| 2026-04-10 12:25 | 33.88548 | 73.20976 | 37023 ft | 495 kts | 2° |
| 2026-04-10 12:25 | 33.95243 | 73.22997 | 37017 ft | 496 kts | 3° |
| 2026-04-10 12:26 | 34.00812 | 73.24683 | 37021 ft | 496 kts | 3° |
| 2026-04-10 12:26 | 34.07487 | 73.26703 | 37030 ft | 495 kts | 3° |
| 2026-04-10 12:27 | 34.15265 | 73.29059 | 37016 ft | 495 kts | 3° |
| 2026-04-10 12:27 | 34.21918 | 73.31078 | 36999 ft | 493 kts | 3° |
| 2026-04-10 12:28 | 34.27427 | 73.32752 | 37013 ft | 489 kts | 3° |
| 2026-04-10 12:28 | 34.34022 | 73.34755 | 36995 ft | 489 kts | 3° |
| 2026-04-10 12:29 | 34.41676 | 73.37082 | 37005 ft | 486 kts | 3° |
| 2026-04-10 12:29 | 34.47168 | 73.38758 | 37009 ft | 484 kts | 3° |
| 2026-04-10 12:30 | 34.53528 | 73.40715 | 36847 ft | 465 kts | 3° |
| 2026-04-10 12:30 | 34.56638 | 73.41671 | 36732 ft | 457 kts | 2° |
| 2026-04-10 12:30 | 34.59705 | 73.42608 | 36493 ft | 452 kts | 2° |
| 2026-04-10 12:30 | 34.62743 | 73.43539 | 36130 ft | 449 kts | 2° |
| 2026-04-10 12:31 | 34.65776 | 73.44459 | 35656 ft | 450 kts | 2° |
| 2026-04-10 12:31 | 34.68828 | 73.45382 | 35107 ft | 454 kts | 3° |
| 2026-04-10 12:31 | 34.71883 | 73.46321 | 34716 ft | 451 kts | 3° |
| 2026-04-10 12:31 | 34.74856 | 73.47305 | 34504 ft | 450 kts | 9° |
| 2026-04-10 12:32 | 34.77750 | 73.48883 | 34238 ft | 462 kts | 20° |
| 2026-04-10 12:32 | 34.80441 | 73.51087 | 33908 ft | 472 kts | 31° |
| 2026-04-10 12:32 | 34.82839 | 73.53871 | 33565 ft | 479 kts | 39° |
| 2026-04-10 12:32 | 34.85100 | 73.56858 | 33262 ft | 479 kts | 40° |
| 2026-04-10 12:33 | 34.87309 | 73.59873 | 32972 ft | 475 kts | 41° |
| 2026-04-10 12:33 | 34.89494 | 73.62862 | 32654 ft | 471 kts | 41° |
| 2026-04-10 12:33 | 34.91680 | 73.65815 | 32294 ft | 466 kts | 40° |
| 2026-04-10 12:33 | 34.93854 | 73.68715 | 32006 ft | 462 kts | 40° |
| 2026-04-10 12:34 | 34.96025 | 73.71591 | 31652 ft | 459 kts | 40° |
| 2026-04-10 12:34 | 34.98159 | 73.74398 | 31400 ft | 456 kts | 40° |
| 2026-04-10 12:34 | 35.00302 | 73.77222 | 31183 ft | 451 kts | 40° |
| 2026-04-10 12:34 | 35.02426 | 73.80024 | 30916 ft | 448 kts | 40° |
| 2026-04-10 12:35 | 35.04371 | 73.82590 | 30649 ft | 446 kts | 40° |
| 2026-04-10 12:35 | 35.06302 | 73.85141 | 30411 ft | 442 kts | 40° |
| 2026-04-10 12:35 | 35.08380 | 73.87890 | 30146 ft | 439 kts | 40° |
| 2026-04-10 12:35 | 35.10441 | 73.90618 | 29847 ft | 435 kts | 40° |
| 2026-04-10 12:36 | 35.12487 | 73.93326 | 29567 ft | 433 kts | 40° |
| 2026-04-10 12:36 | 35.14521 | 73.96023 | 29316 ft | 430 kts | 40° |
| 2026-04-10 12:36 | 35.16534 | 73.98692 | 29037 ft | 426 kts | 41° |
| 2026-04-10 12:36 | 35.18507 | 74.01309 | 28762 ft | 423 kts | 41° |
| 2026-04-10 12:37 | 35.20483 | 74.03941 | 28552 ft | 417 kts | 41° |
| 2026-04-10 12:37 | 35.22450 | 74.06523 | 28271 ft | 413 kts | 41° |
| 2026-04-10 12:37 | 35.24417 | 74.09072 | 27958 ft | 411 kts | 41° |
| 2026-04-10 12:37 | 35.26369 | 74.11598 | 27622 ft | 408 kts | 41° |
| 2026-04-10 12:38 | 35.28322 | 74.14119 | 27308 ft | 407 kts | 41° |
| 2026-04-10 12:38 | 35.30257 | 74.16618 | 27042 ft | 403 kts | 42° |
| 2026-04-10 12:38 | 35.32171 | 74.19104 | 26807 ft | 400 kts | 42° |
| 2026-04-10 12:38 | 35.34070 | 74.21582 | 26551 ft | 397 kts | 43° |
| 2026-04-10 12:39 | 35.35928 | 74.24008 | 26261 ft | 395 kts | 43° |
| 2026-04-10 12:39 | 35.37803 | 74.26454 | 26011 ft | 392 kts | 43° |
| 2026-04-10 12:39 | 35.39664 | 74.28885 | 25747 ft | 390 kts | 43° |
| 2026-04-10 12:39 | 35.41513 | 74.31301 | 25456 ft | 387 kts | 44° |
| 2026-04-10 12:40 | 35.43214 | 74.33525 | 25195 ft | 385 kts | 44° |
| 2026-04-10 12:40 | 35.44903 | 74.35734 | 24939 ft | 383 kts | 44° |
| 2026-04-10 12:40 | 35.46716 | 74.38107 | 24708 ft | 380 kts | 45° |
| 2026-04-10 12:40 | 35.48514 | 74.40463 | 24481 ft | 377 kts | 45° |
| 2026-04-10 12:41 | 35.50276 | 74.42772 | 24187 ft | 375 kts | 45° |
| 2026-04-10 12:41 | 35.52053 | 74.45104 | 23905 ft | 372 kts | 45° |
| 2026-04-10 12:41 | 35.53812 | 74.47406 | 23636 ft | 368 kts | 45° |
| 2026-04-10 12:41 | 35.55551 | 74.49687 | 23293 ft | 364 kts | 46° |
| 2026-04-10 12:42 | 35.57261 | 74.51957 | 22930 ft | 361 kts | 46° |
| 2026-04-10 12:42 | 35.58956 | 74.54213 | 22596 ft | 357 kts | 46° |
| 2026-04-10 12:42 | 35.60634 | 74.56427 | 22212 ft | 352 kts | 45° |
| 2026-04-10 12:42 | 35.62291 | 74.58615 | 21881 ft | 348 kts | 49° |
| 2026-04-10 12:43 | 35.63759 | 74.60941 | 21533 ft | 341 kts | 56° |
| 2026-04-10 12:43 | 35.64936 | 74.63408 | 21213 ft | 337 kts | 61° |
| 2026-04-10 12:43 | 35.66052 | 74.65927 | 20880 ft | 334 kts | 61° |
| 2026-04-10 12:43 | 35.67162 | 74.68425 | 20571 ft | 331 kts | 61° |
| 2026-04-10 12:44 | 35.68257 | 74.70873 | 20430 ft | 322 kts | 60° |
| 2026-04-10 12:44 | 35.69327 | 74.73249 | 20264 ft | 313 kts | 60° |
| 2026-04-10 12:44 | 35.70365 | 74.75555 | 20143 ft | 303 kts | 60° |
| 2026-04-10 12:44 | 35.71371 | 74.77791 | 20070 ft | 297 kts | 60° |
| 2026-04-10 12:45 | 35.72138 | 74.80136 | 20010 ft | 300 kts | 83° |
| 2026-04-10 12:45 | 35.72018 | 74.82673 | 20021 ft | 306 kts | 109° |
| 2026-04-10 12:45 | 35.70977 | 74.84934 | 20035 ft | 307 kts | 136° |
| 2026-04-10 12:45 | 35.69229 | 74.86386 | 20006 ft | 302 kts | 163° |
| 2026-04-10 12:46 | 35.67184 | 74.86706 | 20017 ft | 296 kts | 189° |
| 2026-04-10 12:46 | 35.65262 | 74.85903 | 20013 ft | 292 kts | 215° |
| 2026-04-10 12:46 | 35.63781 | 74.84235 | 20011 ft | 288 kts | 237° |
| 2026-04-10 12:46 | 35.62762 | 74.82124 | 20036 ft | 288 kts | 242° |
| 2026-04-10 12:47 | 35.61809 | 74.79951 | 20035 ft | 290 kts | 242° |
| 2026-04-10 12:47 | 35.60864 | 74.77790 | 20018 ft | 292 kts | 242° |
| 2026-04-10 12:47 | 35.59889 | 74.75596 | 20021 ft | 294 kts | 242° |
| 2026-04-10 12:47 | 35.58900 | 74.73393 | 20019 ft | 295 kts | 241° |
| 2026-04-10 12:48 | 35.57902 | 74.71183 | 20030 ft | 296 kts | 241° |
| 2026-04-10 12:48 | 35.57095 | 74.68890 | 20005 ft | 292 kts | 261° |
| 2026-04-10 12:48 | 35.57158 | 74.66431 | 20011 ft | 291 kts | 286° |
| 2026-04-10 12:48 | 35.58086 | 74.64248 | 20010 ft | 291 kts | 310° |
| 2026-04-10 12:49 | 35.59679 | 74.62730 | 20015 ft | 293 kts | 335° |
| 2026-04-10 12:49 | 35.61509 | 74.62175 | 20011 ft | 296 kts | 358° |
| 2026-04-10 12:49 | 35.63501 | 74.62638 | 20020 ft | 300 kts | 25° |
| 2026-04-10 12:49 | 35.65170 | 74.64161 | 20037 ft | 303 kts | 51° |
| 2026-04-10 12:50 | 35.66302 | 74.66348 | 20041 ft | 304 kts | 61° |
| 2026-04-10 12:50 | 35.67317 | 74.68656 | 20020 ft | 310 kts | 62° |
| 2026-04-10 12:50 | 35.68343 | 74.71009 | 20034 ft | 314 kts | 61° |
| 2026-04-10 12:50 | 35.69390 | 74.73372 | 20002 ft | 314 kts | 61° |
| 2026-04-10 12:51 | 35.70437 | 74.75708 | 20022 ft | 309 kts | 60° |
| 2026-04-10 12:51 | 35.71474 | 74.78014 | 20005 ft | 307 kts | 60° |
| 2026-04-10 12:51 | 35.72203 | 74.80402 | 20011 ft | 303 kts | 84° |
| 2026-04-10 12:51 | 35.72041 | 74.82957 | 20014 ft | 303 kts | 110° |
| 2026-04-10 12:52 | 35.71027 | 74.85225 | 20013 ft | 306 kts | 134° |
| 2026-04-10 12:52 | 35.69355 | 74.86814 | 20012 ft | 304 kts | 158° |
| 2026-04-10 12:52 | 35.67331 | 74.87409 | 20018 ft | 299 kts | 182° |
| 2026-04-10 12:52 | 35.65323 | 74.86925 | 20008 ft | 294 kts | 207° |
| 2026-04-10 12:53 | 35.63644 | 74.85540 | 20016 ft | 291 kts | 226° |
| 2026-04-10 12:53 | 35.62457 | 74.83551 | 20042 ft | 288 kts | 241° |
| 2026-04-10 12:53 | 35.61504 | 74.81411 | 20017 ft | 290 kts | 242° |
| 2026-04-10 12:53 | 35.60553 | 74.79225 | 20037 ft | 291 kts | 242° |
| 2026-04-10 12:54 | 35.59584 | 74.77026 | 20015 ft | 294 kts | 242° |
| 2026-04-10 12:54 | 35.58671 | 74.74986 | 20015 ft | 295 kts | 241° |
| 2026-04-10 12:54 | 35.57678 | 74.72778 | 20034 ft | 295 kts | 241° |
| 2026-04-10 12:54 | 35.56811 | 74.70521 | 19995 ft | 291 kts | 259° |
| 2026-04-10 12:55 | 35.56852 | 74.68074 | 20035 ft | 290 kts | 286° |
| 2026-04-10 12:55 | 35.57754 | 74.65857 | 20019 ft | 294 kts | 308° |
| 2026-04-10 12:55 | 35.59276 | 74.64163 | 20016 ft | 299 kts | 328° |
| 2026-04-10 12:55 | 35.61199 | 74.63275 | 20013 ft | 304 kts | 351° |
| 2026-04-10 12:56 | 35.63306 | 74.63424 | 20010 ft | 308 kts | 17° |
| 2026-04-10 12:56 | 35.65173 | 74.64691 | 20017 ft | 310 kts | 42° |
| 2026-04-10 12:56 | 35.66491 | 74.66773 | 20026 ft | 310 kts | 60° |
| 2026-04-10 12:56 | 35.67527 | 74.69105 | 20027 ft | 312 kts | 62° |
| 2026-04-10 12:57 | 35.68553 | 74.71462 | 20023 ft | 314 kts | 61° |
| 2026-04-10 12:57 | 35.69596 | 74.73823 | 20004 ft | 313 kts | 61° |
| 2026-04-10 12:57 | 35.70645 | 74.76167 | 20030 ft | 312 kts | 60° |
| 2026-04-10 12:57 | 35.71690 | 74.78507 | 20009 ft | 312 kts | 64° |
| 2026-04-10 12:58 | 35.72223 | 74.81096 | 20047 ft | 329 kts | 92° |
| 2026-04-10 12:58 | 35.71706 | 74.83899 | 20042 ft | 344 kts | 114° |
| 2026-04-10 12:58 | 35.70682 | 74.86575 | 20002 ft | 347 kts | 117° |
| 2026-04-10 12:58 | 35.69632 | 74.89235 | 20000 ft | 346 kts | 115° |
| 2026-04-10 12:59 | 35.68681 | 74.91947 | 20005 ft | 345 kts | 112° |
| 2026-04-10 12:59 | 35.67833 | 74.94713 | 20022 ft | 345 kts | 110° |
| 2026-04-10 12:59 | 35.67059 | 74.97510 | 20009 ft | 346 kts | 109° |
| 2026-04-10 12:59 | 35.66331 | 75.00329 | 20000 ft | 346 kts | 108° |
| 2026-04-10 13:00 | 35.65637 | 75.03112 | 20010 ft | 344 kts | 107° |
| 2026-04-10 13:00 | 35.64948 | 75.05929 | 20004 ft | 344 kts | 107° |
| 2026-04-10 13:00 | 35.64264 | 75.08748 | 20005 ft | 344 kts | 107° |
| 2026-04-10 13:00 | 35.63580 | 75.11572 | 20020 ft | 345 kts | 107° |
| 2026-04-10 13:01 | 35.62896 | 75.14396 | 20003 ft | 345 kts | 107° |
| 2026-04-10 13:01 | 35.62211 | 75.17216 | 20011 ft | 345 kts | 107° |
| 2026-04-10 13:01 | 35.61527 | 75.20039 | 20009 ft | 345 kts | 107° |
| 2026-04-10 13:01 | 35.60849 | 75.22826 | 20021 ft | 345 kts | 107° |
| 2026-04-10 13:02 | 35.60161 | 75.25649 | 20009 ft | 345 kts | 107° |
| 2026-04-10 13:02 | 35.59470 | 75.28476 | 20006 ft | 346 kts | 107° |
| 2026-04-10 13:02 | 35.58762 | 75.31255 | 19981 ft | 334 kts | 108° |
| 2026-04-10 13:02 | 35.58402 | 75.34063 | 19995 ft | 339 kts | 88° |
| 2026-04-10 13:03 | 35.58661 | 75.36974 | 19990 ft | 346 kts | 81° |
| 2026-04-10 13:03 | 35.59096 | 75.39895 | 19670 ft | 349 kts | 78° |
| 2026-04-10 13:03 | 35.59564 | 75.42817 | 19299 ft | 348 kts | 81° |
| 2026-04-10 13:03 | 35.59623 | 75.45746 | 18991 ft | 342 kts | 100° |
| 2026-04-10 13:04 | 35.58833 | 75.48450 | 18660 ft | 335 kts | 123° |
| 2026-04-10 13:04 | 35.57534 | 75.50459 | 18328 ft | 330 kts | 133° |
| 2026-04-10 13:04 | 35.55992 | 75.52537 | 17896 ft | 328 kts | 130° |
| 2026-04-10 13:04 | 35.54648 | 75.54746 | 17218 ft | 319 kts | 124° |
| 2026-04-10 13:05 | 35.53519 | 75.56819 | 16386 ft | 318 kts | 123° |
| 2026-04-10 13:05 | 35.52315 | 75.59088 | 15472 ft | 316 kts | 123° |
| 2026-04-10 13:05 | 35.51124 | 75.61345 | 14637 ft | 312 kts | 123° |
| 2026-04-10 13:05 | 35.49954 | 75.63565 | 13787 ft | 308 kts | 123° |
| 2026-04-10 13:06 | 35.48788 | 75.65690 | 13515 ft | 289 kts | 124° |
| 2026-04-10 13:06 | 35.47690 | 75.67738 | 13487 ft | 295 kts | 123° |
| 2026-04-10 13:06 | 35.46516 | 75.69801 | 13511 ft | 294 kts | 129° |
| 2026-04-10 13:06 | 35.45115 | 75.71618 | 13529 ft | 292 kts | 139° |
| 2026-04-10 13:07 | 35.43481 | 75.73138 | 13231 ft | 296 kts | 148° |
| 2026-04-10 13:07 | 35.41707 | 75.74285 | 13046 ft | 279 kts | 157° |
| 2026-04-10 13:07 | 35.39891 | 75.74892 | 12383 ft | 267 kts | 173° |
| 2026-04-10 13:07 | 35.38023 | 75.74844 | 11516 ft | 273 kts | 190° |
| 2026-04-10 13:08 | 35.36329 | 75.74023 | 11315 ft | 247 kts | 212° |
| 2026-04-10 13:08 | 35.34955 | 75.72897 | 11083 ft | 230 kts | 216° |
| 2026-04-10 13:08 | 35.33786 | 75.71724 | 11070 ft | 215 kts | 225° |
| 2026-04-10 13:09 | 35.31882 | 75.69162 | 11021 ft | 193 kts | 229° |
| 2026-04-10 13:09 | 35.31014 | 75.67938 | 10866 ft | 190 kts | 229° |
| 2026-04-10 13:09 | 35.30119 | 75.66722 | 10536 ft | 196 kts | 227° |
| 2026-04-10 13:09 | 35.29229 | 75.65461 | 10254 ft | 192 kts | 233° |
| 2026-04-10 13:10 | 35.28576 | 75.64209 | 9987 ft | 187 kts | 241° |
| 2026-04-10 13:10 | 35.28119 | 75.62874 | 9684 ft | 185 kts | 255° |
| 2026-04-10 13:10 | 35.27961 | 75.61320 | 9286 ft | 188 kts | 271° |
| 2026-04-10 13:10 | 35.28182 | 75.59774 | 8995 ft | 184 kts | 288° |
| 2026-04-10 13:11 | 35.28764 | 75.58390 | 8676 ft | 182 kts | 305° |
| 2026-04-10 13:11 | 35.29514 | 75.57167 | 8412 ft | 174 kts | 309° |
| 2026-04-10 13:11 | 35.30460 | 75.56285 | 8030 ft | 173 kts | 334° |
| 2026-04-10 13:11 | 35.31538 | 75.55657 | 7627 ft | 170 kts | 330° |
| 2026-04-10 13:12 | 35.32523 | 75.54909 | 7341 ft | 162 kts | 326° |
| 2026-04-10 13:12 | 35.33372 | 75.54242 | 7296 ft | 112 kts | 327° |
| 2026-04-10 13:12 | 35.33775 | 75.53926 | 7295 ft | 52 kts | 328° |
| 2026-04-10 13:12 | 35.34085 | 75.53676 | 7292 ft | 53 kts | 327° |
| 2026-04-10 13:13 | 35.34391 | 75.53433 | 7290 ft | 47 kts | 327° |
| 2026-04-10 13:13 | 35.34655 | 75.53273 | 7280 ft | 43 kts | 345° |
| 2026-04-10 13:13 | 35.34890 | 75.53241 | 7282 ft | 28 kts | 357° |
| 2026-04-10 13:13 | 35.34993 | 75.53284 | 7283 ft | 11 kts | 91° |
| 2026-04-10 13:14 | 35.34922 | 75.53368 | 7288 ft | 24 kts | 144° |
| 2026-04-10 13:14 | 35.34712 | 75.53538 | 7287 ft | 48 kts | 147° |
| 2026-04-10 13:14 | 35.34376 | 75.53802 | 7294 ft | 66 kts | 148° |
| 2026-04-10 13:14 | 35.33954 | 75.54138 | 7299 ft | 73 kts | 146° |
| 2026-04-10 13:15 | 35.33599 | 75.54417 | 7305 ft | 52 kts | 148° |
| 2026-04-10 13:15 | 35.33426 | 75.54555 | 7302 ft | 19 kts | 153° |
| 2026-04-10 13:15 | 35.33314 | 75.54490 | 7304 ft | 21 kts | 238° |
| 2026-04-10 13:15 | 35.33228 | 75.54322 | 7302 ft | 25 kts | 237° |
| 2026-04-10 13:16 | 35.33149 | 75.54171 | 7305 ft | 8 kts | 237° |
| 2026-04-10 13:16 | 35.33113 | 75.54135 | 7305 ft | 6 kts | 176° |
| 2026-04-10 13:16 | 35.33082 | 75.54150 | 7300 ft | 0 kts | 154° |